M I D A S
Marine Information and Data Acquisition System
Tripno 1712 of the Zeeleeuw from 2009-06-18 03:42:29 to 2009-06-18 13:24:37
Back to CruiseResearch ActivitiesStationsMapUnderway DataData graphs

EquipmentUnitsComment
TimeDGPSUTC
LatitudeDGPSDM.mWGS84
LongitudeDGPSDM.mWGS84
TemperatureSBE03/SBE38deg celciusITS90
ConductivitySBE21S/mITS90
SalinitySBE21 Practical Salinity Units
ChlorophylAChelsea fluorimeterg/lCalibrated in Aceton
Missing or incorrect values are displayed as -999
Sea surface data collected by the RV Zeeleeuw from 2009-06-18 03:35:18 to 2009-06-18 13:55:10
                                                                                    Next 1000 lines
Time Latitude Longitude Temperature Conductivity Salinity ChlorophylA
2009-06-18 03:35:28 51°13.661 2°55.957 21.4531 0.264319 1.566425 2.795254
2009-06-18 03:35:33 51°13.662 2°55.955 21.5623 0.264319 1.566425 2.830078
2009-06-18 03:35:38 51°13.662 2°55.952 21.5511 0.264319 1.566425 2.830078
2009-06-18 03:35:43 51°13.664 2°55.948 21.554 0.264422 1.567098 2.830078
2009-06-18 03:35:49 51°13.665 2°55.942 21.5435 0.264525 1.567772 2.830078
2009-06-18 03:35:54 51°13.666 2°55.937 21.5578 0.264525 1.567772 2.795254
2009-06-18 03:36:00 51°13.668 2°55.93 21.5569 0.264525 1.567801 2.830078
2009-06-18 03:36:06 51°13.67 2°55.923 21.5602 0.264525 1.567801 2.795254
2009-06-18 03:36:12 51°13.672 2°55.915 21.5717 0.264525 1.567801 2.795254
2009-06-18 03:36:17 51°13.674 2°55.908 21.5646 0.264525 1.56783 2.795254
2009-06-18 03:36:21 51°13.676 2°55.903 21.5723 0.264525 1.567859 2.830078
2009-06-18 03:36:27 51°13.678 2°55.895 21.578 0.264525 1.567859 2.795254
2009-06-18 03:36:32 51°13.679 2°55.888 21.5639 0.264525 1.567888 2.795254
2009-06-18 03:36:37 51°13.68 2°55.881 21.5567 0.264422 1.567302 2.795254
2009-06-18 03:36:41 51°13.681 2°55.876 21.564 0.264422 1.567302 2.795254
2009-06-18 03:36:47 51°13.682 2°55.868 21.5739 0.264422 1.567302 2.795254
2009-06-18 03:36:52 51°13.684 2°55.861 21.5839 0.264422 1.567302 2.795254
2009-06-18 03:36:57 51°13.686 2°55.854 21.5829 0.264422 1.567331 2.795254
2009-06-18 03:37:01 51°13.687 2°55.848 21.5846 0.264422 1.567331 2.795254
2009-06-18 03:37:07 51°13.688 2°55.84 21.5782 0.264422 1.56739 2.795254
2009-06-18 03:37:12 51°13.69 2°55.833 21.5796 0.264422 1.56739 2.795254
2009-06-18 03:37:17 51°13.691 2°55.826 21.5695 0.264422 1.56739 2.795254
2009-06-18 03:37:21 51°13.692 2°55.821 21.5658 0.264422 1.567419 2.795254
2009-06-18 03:37:27 51°13.694 2°55.812 21.5735 0.264422 1.567419 2.795254
2009-06-18 03:37:32 51°13.695 2°55.806 21.5964 0.264319 1.566804 2.795254
2009-06-18 03:37:37 51°13.696 2°55.799 21.5911 0.264319 1.566804 2.795254
2009-06-18 03:37:41 51°13.696 2°55.794 21.5854 0.264319 1.566804 2.795254
2009-06-18 03:37:47 51°13.698 2°55.787 21.5801 0.264319 1.566804 2.795254
2009-06-18 03:37:52 51°13.699 2°55.782 21.5765 0.264319 1.566833 2.795254
2009-06-18 03:37:57 51°13.7 2°55.777 21.5962 0.264319 1.566862 2.795254
2009-06-18 03:38:01 51°13.7 2°55.775 21.6158 0.264319 1.566862 2.795254
2009-06-18 03:38:07 51°13.701 2°55.773 21.6287 0.264319 1.566891 2.795254
2009-06-18 03:38:11 51°13.701 2°55.773 21.6292 0.264319 1.566891 2.795254
2009-06-18 03:38:16 51°13.702 2°55.774 21.5809 0.264319 1.56692 2.795254
2009-06-18 03:38:21 51°13.702 2°55.775 21.5836 0.264319 1.56695 2.795254
2009-06-18 03:38:26 51°13.703 2°55.776 21.5818 0.264319 1.566979 2.795254
2009-06-18 03:38:31 51°13.703 2°55.776 21.5655 0.264319 1.566979 2.795254
2009-06-18 03:38:36 51°13.704 2°55.776 21.5628 0.264319 1.567037 2.795254
2009-06-18 03:38:41 51°13.704 2°55.775 21.5676 0.264319 1.567037 2.795254
2009-06-18 03:38:45 51°13.704 2°55.774 21.5564 0.264216 1.566393 2.795254
2009-06-18 03:38:50 51°13.703 2°55.772 21.5565 0.264216 1.566422 2.795254
2009-06-18 03:38:55 51°13.703 2°55.77 21.5697 0.264216 1.566451 2.795254
2009-06-18 03:39:00 51°13.702 2°55.768 21.5836 0.264216 1.566451 2.795254
2009-06-18 03:39:05 51°13.701 2°55.766 21.5715 0.264216 1.566451 2.795254
2009-06-18 03:39:09 51°13.701 2°55.764 21.5683 0.264216 1.566451 2.795254
2009-06-18 03:39:14 51°13.7 2°55.762 21.5798 0.264216 1.56648 2.795254
2009-06-18 03:39:20 51°13.7 2°55.76 21.584 0.264216 1.56648 2.795254
2009-06-18 03:39:25 51°13.7 2°55.76 21.5996 0.264216 1.566509 2.795254
2009-06-18 03:39:31 51°13.701 2°55.76 21.5957 0.264216 1.566539 2.830078
2009-06-18 03:39:37 51°13.701 2°55.761 21.5972 0.264216 1.566568 2.795254
2009-06-18 03:39:41 51°13.702 2°55.762 21.5972 0.264216 1.566568 2.795254
2009-06-18 03:39:46 51°13.703 2°55.763 21.5976 0.264113 1.565923 2.795254
2009-06-18 03:39:51 51°13.704 2°55.764 21.5946 0.264216 1.566597 2.795254
2009-06-18 03:39:56 51°13.705 2°55.765 21.5909 0.264113 1.565982 2.795254
2009-06-18 03:40:01 51°13.705 2°55.765 21.5436 0.264113 1.566011 2.795254
2009-06-18 03:40:05 51°13.705 2°55.766 21.5529 0.264113 1.56604 2.795254
2009-06-18 03:40:10 51°13.705 2°55.765 21.5411 0.264113 1.56604 2.795254
2009-06-18 03:40:16 51°13.703 2°55.765 21.5614 0.264113 1.566069 2.795254
2009-06-18 03:40:20 51°13.702 2°55.764 21.5842 0.264113 1.566098 2.795254
2009-06-18 03:40:25 51°13.7 2°55.763 21.5919 0.264113 1.566127 2.795254
2009-06-18 03:40:30 51°13.699 2°55.762 21.5894 0.264113 1.566127 2.795254
2009-06-18 03:40:35 51°13.697 2°55.762 21.5992 0.264113 1.566157 2.795254
2009-06-18 03:40:40 51°13.696 2°55.761 21.6131 0.264113 1.566157 2.795254
2009-06-18 03:40:46 51°13.696 2°55.761 21.6131 0.264113 1.566157 2.795254
2009-06-18 03:40:52 51°13.697 2°55.761 21.6193 0.264113 1.566186 2.795254
2009-06-18 03:40:57 51°13.699 2°55.762 21.63 0.26401 1.56557 2.795254
2009-06-18 03:41:01 51°13.701 2°55.762 21.6288 0.26401 1.565629 2.795254
2009-06-18 03:41:07 51°13.704 2°55.762 21.6407 0.26401 1.565687 2.795254
2009-06-18 03:41:12 51°13.707 2°55.761 21.6379 0.26401 1.565687 2.795254
2009-06-18 03:41:16 51°13.71 2°55.76 21.6405 0.26401 1.565745 2.795254
2009-06-18 03:41:21 51°13.713 2°55.757 21.6413 0.26401 1.565774 2.795254
2009-06-18 03:41:26 51°13.717 2°55.754 21.6403 0.26401 1.565833 2.795254
2009-06-18 03:41:31 51°13.722 2°55.749 21.6384 0.26401 1.565862 2.795254
2009-06-18 03:41:36 51°13.727 2°55.744 21.636 0.263907 1.565276 2.795254
2009-06-18 03:41:41 51°13.733 2°55.737 21.6031 0.263907 1.565276 2.795254
2009-06-18 03:41:45 51°13.737 2°55.731 21.5549 0.263907 1.565305 2.795254
2009-06-18 03:41:50 51°13.744 2°55.724 21.5562 0.263907 1.565305 2.795254
2009-06-18 03:41:55 51°13.752 2°55.716 21.5507 0.263907 1.565305 2.795254
2009-06-18 03:42:00 51°13.759 2°55.707 21.5396 0.263907 1.565334 2.795254
2009-06-18 03:42:05 51°13.767 2°55.698 21.5388 0.263907 1.565305 2.795254
2009-06-18 03:42:09 51°13.774 2°55.691 21.5436 0.263907 1.565305 2.795254
2009-06-18 03:42:15 51°13.784 2°55.679 21.5404 0.263907 1.565305 2.795254
2009-06-18 03:42:19 51°13.791 2°55.672 21.5484 0.263804 1.56466 2.795254
2009-06-18 03:42:24 51°13.8 2°55.662 21.5201 0.263907 1.565334 2.795254
2009-06-18 03:42:29 51°13.81 2°55.653 21.5443 0.263804 1.564747 2.795254
2009-06-18 03:42:34 51°13.819 2°55.644 21.5522 0.263804 1.564777 2.795254
2009-06-18 03:42:39 51°13.83 2°55.635 21.5602 0.263804 1.564777 2.795254
2009-06-18 03:42:44 51°13.84 2°55.626 21.5596 0.263804 1.564835 2.795254
2009-06-18 03:42:48 51°13.848 2°55.619 21.5644 0.263804 1.564864 2.795254
2009-06-18 03:42:53 51°13.858 2°55.611 21.5896 0.263804 1.564922 2.795254
2009-06-18 03:42:58 51°13.869 2°55.603 21.5841 0.263804 1.564952 2.795254
2009-06-18 03:43:03 51°13.88 2°55.594 21.5897 0.263804 1.564981 2.795254
2009-06-18 03:43:08 51°13.89 2°55.586 21.5977 0.263804 1.564981 2.795254
2009-06-18 03:43:13 51°13.901 2°55.577 21.5587 0.263804 1.56501 2.795254
2009-06-18 03:43:18 51°13.913 2°55.568 21.5646 0.263804 1.565039 2.795254
2009-06-18 03:43:23 51°13.924 2°55.56 21.6003 0.263701 1.564423 2.795254
2009-06-18 03:43:28 51°13.935 2°55.552 21.5862 0.263804 1.565068 2.795254
2009-06-18 03:43:33 51°13.946 2°55.543 21.5917 0.263701 1.564452 2.795254
2009-06-18 03:43:38 51°13.957 2°55.534 21.5955 0.263701 1.564452 2.795254
2009-06-18 03:43:43 51°13.968 2°55.525 21.6133 0.263701 1.564511 2.795254
2009-06-18 03:43:48 51°13.98 2°55.517 21.5906 0.263701 1.56454 2.795254
2009-06-18 03:43:53 51°13.991 2°55.508 21.6026 0.263701 1.56454 2.795254
2009-06-18 03:43:57 51°13 2°55.501 21.6025 0.263701 1.564598 2.795254
2009-06-18 03:44:03 51°14.014 2°55.492 21.606 0.263701 1.564657 2.795254
2009-06-18 03:44:08 51°14.025 2°55.483 21.5927 0.263701 1.564657 2.795254
2009-06-18 03:44:13 51°14.037 2°55.475 21.6031 0.263701 1.564686 2.795254
2009-06-18 03:44:18 51°14.049 2°55.466 21.602 0.263701 1.564744 2.795254
2009-06-18 03:44:23 51°14.06 2°55.457 21.5969 0.263701 1.564744 2.795254
2009-06-18 03:44:28 51°14.071 2°55.448 21.6056 0.263598 1.564157 2.795254
2009-06-18 03:44:33 51°14.083 2°55.44 21.5881 0.263598 1.564157 2.795254
2009-06-18 03:44:38 51°14.094 2°55.43 21.5789 0.263598 1.564157 2.795254
2009-06-18 03:44:43 51°14.106 2°55.422 21.6062 0.263598 1.564187 2.795254
2009-06-18 03:44:48 51°14.118 2°55.413 21.625 0.263598 1.564216 2.795254
2009-06-18 03:44:53 51°14.13 2°55.405 21.6149 0.263598 1.564216 2.795254
2009-06-18 03:44:58 51°14.141 2°55.395 21.6343 0.263598 1.564245 2.830078
2009-06-18 03:45:03 51°14.153 2°55.386 21.6424 0.263598 1.564245 2.795254
2009-06-18 03:45:08 51°14.163 2°55.375 21.6258 0.263598 1.564245 2.795254
2009-06-18 03:45:13 51°14.174 2°55.364 21.618 0.263598 1.564274 2.795254
2009-06-18 03:45:18 51°14.185 2°55.352 21.6075 0.263598 1.564274 2.830078
2009-06-18 03:45:23 51°14.195 2°55.34 21.6123 0.263598 1.564274 2.795254
2009-06-18 03:45:28 51°14.206 2°55.327 21.5995 0.263598 1.564303 2.795254
2009-06-18 03:45:33 51°14.216 2°55.314 21.6011 0.263495 1.563658 2.795254
2009-06-18 03:45:38 51°14.226 2°55.301 21.5546 0.263495 1.563658 2.795254
2009-06-18 03:45:43 51°14.236 2°55.287 21.5917 0.263495 1.563687 2.795254
2009-06-18 03:45:48 51°14.247 2°55.273 21.6108 0.263495 1.563687 2.795254
2009-06-18 03:45:53 51°14.256 2°55.258 21.5901 0.263495 1.563717 2.795254
2009-06-18 03:45:58 51°14.266 2°55.243 21.5922 0.263495 1.563746 2.795254
2009-06-18 03:46:03 51°14.276 2°55.227 21.6219 0.263495 1.563746 2.795254
2009-06-18 03:46:08 51°14.286 2°55.211 21.5778 0.263495 1.563775 2.795254
2009-06-18 03:46:13 51°14.295 2°55.194 21.5667 0.263495 1.563804 2.795254
2009-06-18 03:46:18 51°14.305 2°55.177 21.6236 0.263495 1.563833 2.795254
2009-06-18 03:46:23 51°14.315 2°55.161 21.6156 0.263495 1.563862 2.795254
2009-06-18 03:46:28 51°14.325 2°55.143 21.5371 0.263495 1.563892 2.795254
2009-06-18 03:46:33 51°14.334 2°55.125 21.5952 0.263495 1.563921 2.795254
2009-06-18 03:46:38 51°14.344 2°55.106 21.5977 0.263495 1.563921 2.795254
2009-06-18 03:46:43 51°14.353 2°55.088 21.507 0.263392 1.563305 2.795254
2009-06-18 03:46:48 51°14.362 2°55.069 21.5289 0.263392 1.563334 2.795254
2009-06-18 03:46:53 51°14.372 2°55.051 21.5789 0.263392 1.563363 2.795254
2009-06-18 03:46:58 51°14.382 2°55.033 21.5995 0.263392 1.563363 2.795254
2009-06-18 03:47:03 51°14.392 2°55.016 21.5946 0.263392 1.563421 2.795254
2009-06-18 03:47:08 51°14.402 2°54.998 21.5779 0.263392 1.563421 2.795254
2009-06-18 03:47:13 51°14.412 2°54.98 21.5724 0.263392 1.563421 2.795254
2009-06-18 03:47:17 51°14.42 2°54.965 21.5546 0.263392 1.563421 2.795254
2009-06-18 03:47:23 51°14.432 2°54.942 21.5923 0.263392 1.56345 2.795254
2009-06-18 03:47:28 51°14.441 2°54.923 21.5812 0.263392 1.56345 2.795254
2009-06-18 03:47:33 51°14.451 2°54.904 21.5913 0.263392 1.56345 2.795254
2009-06-18 03:47:37 51°14.459 2°54.889 21.5747 0.263392 1.56345 2.795254
2009-06-18 03:47:43 51°14.47 2°54.865 21.5688 0.263392 1.56345 2.795254
2009-06-18 03:47:48 51°14.479 2°54.845 21.5339 0.263392 1.56348 2.795254
2009-06-18 03:47:53 51°14.488 2°54.825 21.5674 0.263392 1.56348 2.795254
2009-06-18 03:47:58 51°14.496 2°54.804 21.5765 0.263289 1.562834 2.795254
2009-06-18 03:48:03 51°14.505 2°54.783 21.5768 0.263289 1.562834 2.795254
2009-06-18 03:48:08 51°14.512 2°54.761 21.5727 0.263289 1.562834 2.795254
2009-06-18 03:48:13 51°14.52 2°54.739 21.5512 0.263289 1.562834 2.795254
2009-06-18 03:48:18 51°14.526 2°54.716 21.5588 0.263289 1.562834 2.795254
2009-06-18 03:48:23 51°14.533 2°54.694 21.538 0.263289 1.562864 2.795254
2009-06-18 03:48:28 51°14.539 2°54.671 21.5518 0.263289 1.562864 2.795254
2009-06-18 03:48:33 51°14.546 2°54.648 21.5479 0.263289 1.562893 2.795254
2009-06-18 03:48:38 51°14.552 2°54.625 21.559 0.263289 1.562893 2.795254
2009-06-18 03:48:43 51°14.557 2°54.601 21.562 0.263289 1.562893 2.795254
2009-06-18 03:48:48 51°14.563 2°54.578 21.5733 0.263289 1.562893 2.795254
2009-06-18 03:48:53 51°14.567 2°54.554 21.5331 0.263289 1.562922 2.795254
2009-06-18 03:48:58 51°14.572 2°54.529 21.5648 0.263289 1.562922 2.795254
2009-06-18 03:49:03 51°14.576 2°54.504 21.5271 0.263289 1.562922 2.795254
2009-06-18 03:49:08 51°14.579 2°54.48 21.5645 0.263289 1.562922 2.795254
2009-06-18 03:49:13 51°14.583 2°54.455 21.5666 0.263289 1.562951 2.795254
2009-06-18 03:49:18 51°14.586 2°54.43 21.56 0.263289 1.562951 2.795254
2009-06-18 03:49:23 51°14.589 2°54.405 21.5161 0.263289 1.56298 2.795254
2009-06-18 03:49:28 51°14.591 2°54.38 21.5575 0.263186 1.562364 2.795254
2009-06-18 03:49:33 51°14.593 2°54.354 21.5534 0.263186 1.562364 2.795254
2009-06-18 03:49:38 51°14.595 2°54.328 21.5363 0.263186 1.562364 2.795254
2009-06-18 03:49:43 51°14.596 2°54.303 21.5219 0.263186 1.562393 2.795254
2009-06-18 03:49:48 51°14.598 2°54.277 21.5529 0.263186 1.562393 2.795254
2009-06-18 03:49:53 51°14.601 2°54.252 21.5388 0.263186 1.562451 2.795254
2009-06-18 03:49:58 51°14.603 2°54.227 21.5531 0.263186 1.562451 2.795254
2009-06-18 03:50:03 51°14.606 2°54.201 21.5351 0.263186 1.562481 2.795254
2009-06-18 03:50:08 51°14.608 2°54.176 21.5616 0.263186 1.562481 2.795254
2009-06-18 03:50:13 51°14.611 2°54.15 21.5412 0.263186 1.56251 2.795254
2009-06-18 03:50:18 51°14.613 2°54.125 21.5506 0.263186 1.562539 2.795254
2009-06-18 03:50:23 51°14.616 2°54.099 21.5233 0.263186 1.562568 2.795254
2009-06-18 03:50:28 51°14.619 2°54.075 21.5395 0.263186 1.562568 2.795254
2009-06-18 03:50:33 51°14.622 2°54.05 21.5592 0.263186 1.562597 2.795254
2009-06-18 03:50:38 51°14.625 2°54.024 21.5347 0.263186 1.562597 2.795254
2009-06-18 03:50:43 51°14.628 2°53.999 21.551 0.263186 1.562626 2.795254
2009-06-18 03:50:48 51°14.631 2°53.975 21.548 0.263186 1.562626 2.795254
2009-06-18 03:50:53 51°14.634 2°53.949 21.5397 0.263186 1.562656 2.795254
2009-06-18 03:50:57 51°14.637 2°53.929 21.5622 0.263186 1.562685 2.795254
2009-06-18 03:51:03 51°14.641 2°53.899 21.5466 0.263083 1.562039 2.795254
2009-06-18 03:51:08 51°14.644 2°53.874 21.5455 0.263083 1.562039 2.795254
2009-06-18 03:51:13 51°14.647 2°53.849 21.5412 0.263083 1.562068 2.795254
2009-06-18 03:51:18 51°14.65 2°53.824 21.5219 0.263083 1.562068 2.795254
2009-06-18 03:51:23 51°14.653 2°53.799 21.5423 0.263083 1.562098 2.795254
2009-06-18 03:51:28 51°14.656 2°53.775 21.5518 0.263083 1.562098 2.795254
2009-06-18 03:51:33 51°14.659 2°53.75 21.5533 0.263083 1.562098 2.795254
2009-06-18 03:51:38 51°14.662 2°53.725 21.5452 0.263083 1.562098 2.795254
2009-06-18 03:51:43 51°14.665 2°53.7 21.5549 0.263083 1.562127 2.795254
2009-06-18 03:51:48 51°14.669 2°53.675 21.5604 0.263083 1.562127 2.795254
2009-06-18 03:51:53 51°14.672 2°53.65 21.5579 0.263083 1.562127 2.795254
2009-06-18 03:51:58 51°14.675 2°53.626 21.5579 0.263083 1.562127 2.795254
2009-06-18 03:52:03 51°14.678 2°53.601 21.5406 0.263083 1.562156 2.795254
2009-06-18 03:52:08 51°14.682 2°53.576 21.5537 0.263083 1.562156 2.795254
2009-06-18 03:52:13 51°14.685 2°53.551 21.531 0.263083 1.562156 2.795254
2009-06-18 03:52:18 51°14.688 2°53.526 21.5533 0.263083 1.562156 2.795254
2009-06-18 03:52:23 51°14.691 2°53.502 21.5287 0.263083 1.562156 2.795254
2009-06-18 03:52:28 51°14.695 2°53.477 21.5246 0.263083 1.562156 2.795254
2009-06-18 03:52:33 51°14.698 2°53.452 21.4995 0.263083 1.562156 2.795254
2009-06-18 03:52:38 51°14.701 2°53.427 21.5446 0.263083 1.562156 2.795254
2009-06-18 03:52:43 51°14.705 2°53.402 21.5156 0.263083 1.562156 2.795254
2009-06-18 03:52:48 51°14.708 2°53.378 21.5358 0.263083 1.562156 2.795254
2009-06-18 03:52:53 51°14.712 2°53.353 21.513 0.263083 1.562156 2.795254
2009-06-18 03:52:58 51°14.715 2°53.329 21.528 0.263083 1.562156 2.795254
2009-06-18 03:53:03 51°14.719 2°53.304 21.5252 0.263083 1.562156 2.795254
2009-06-18 03:53:08 51°14.722 2°53.28 21.5196 0.26298 1.56151 2.795254
2009-06-18 03:53:13 51°14.726 2°53.255 21.5208 0.263083 1.562156 2.795254
2009-06-18 03:53:18 51°14.729 2°53.23 21.5305 0.26298 1.56154 2.795254
2009-06-18 03:53:23 51°14.733 2°53.205 21.5379 0.26298 1.56154 2.795254
2009-06-18 03:53:28 51°14.736 2°53.181 21.5302 0.26298 1.56154 2.795254
2009-06-18 03:53:33 51°14.74 2°53.157 21.5384 0.26298 1.56154 2.795254
2009-06-18 03:53:38 51°14.743 2°53.132 21.5368 0.26298 1.56154 2.795254
2009-06-18 03:53:43 51°14.747 2°53.106 21.5007 0.26298 1.56154 2.795254
2009-06-18 03:53:48 51°14.75 2°53.081 21.5343 0.26298 1.56154 2.795254
2009-06-18 03:53:53 51°14.753 2°53.057 21.5065 0.26298 1.56154 2.795254
2009-06-18 03:53:58 51°14.757 2°53.032 21.5088 0.26298 1.56154 2.795254
2009-06-18 03:54:03 51°14.76 2°53.007 21.5353 0.26298 1.56154 2.795254
2009-06-18 03:54:08 51°14.763 2°52.983 21.5243 0.26298 1.56154 2.795254
2009-06-18 03:54:13 51°14.767 2°52.959 21.5233 0.26298 1.561569 2.76043
2009-06-18 03:54:18 51°14.77 2°52.934 21.5239 0.26298 1.561569 2.795254
2009-06-18 03:54:23 51°14.773 2°52.909 21.511 0.26298 1.561569 2.76043
2009-06-18 03:54:28 51°14.777 2°52.884 21.5324 0.26298 1.561569 2.795254
2009-06-18 03:54:33 51°14.78 2°52.86 21.534 0.26298 1.561598 2.76043
2009-06-18 03:54:37 51°14.783 2°52.84 21.5285 0.26298 1.561598 2.76043
2009-06-18 03:54:43 51°14.787 2°52.811 21.5302 0.26298 1.561598 2.795254
2009-06-18 03:54:48 51°14.791 2°52.786 21.5131 0.26298 1.561627 2.795254
2009-06-18 03:54:53 51°14.794 2°52.762 21.5374 0.26298 1.561627 2.795254
2009-06-18 03:54:58 51°14.797 2°52.737 21.5417 0.26298 1.561656 2.76043
2009-06-18 03:55:03 51°14.801 2°52.712 21.5025 0.26298 1.561656 2.795254
2009-06-18 03:55:08 51°14.804 2°52.688 21.5376 0.26298 1.561656 2.795254
2009-06-18 03:55:13 51°14.808 2°52.664 21.495 0.26298 1.561685 2.795254
2009-06-18 03:55:17 51°14.811 2°52.644 21.5327 0.26298 1.561715 2.795254
2009-06-18 03:55:23 51°14.814 2°52.614 21.5137 0.26298 1.561715 2.795254
2009-06-18 03:55:28 51°14.817 2°52.59 21.5227 0.26298 1.561744 2.795254
2009-06-18 03:55:33 51°14.82 2°52.565 21.5137 0.26298 1.561773 2.76043
2009-06-18 03:55:38 51°14.823 2°52.54 21.5121 0.26298 1.561773 2.76043
2009-06-18 03:55:43 51°14.826 2°52.515 21.5211 0.26298 1.561773 2.76043
2009-06-18 03:55:48 51°14.829 2°52.49 21.5261 0.26298 1.561802 2.795254
2009-06-18 03:55:53 51°14.833 2°52.466 21.5165 0.262878 1.561156 2.795254
2009-06-18 03:55:58 51°14.836 2°52.441 21.528 0.26298 1.561831 2.795254
2009-06-18 03:56:03 51°14.84 2°52.416 21.5172 0.26298 1.56186 2.795254
2009-06-18 03:56:08 51°14.844 2°52.392 21.5291 0.26298 1.56186 2.795254
2009-06-18 03:56:13 51°14.848 2°52.368 21.5129 0.26298 1.561831 2.795254
2009-06-18 03:56:17 51°14.851 2°52.348 21.5001 0.26298 1.56186 2.795254
2009-06-18 03:56:23 51°14.855 2°52.319 21.512 0.262878 1.561244 2.795254
2009-06-18 03:56:28 51°14.858 2°52.294 21.5054 0.262878 1.561244 2.795254
2009-06-18 03:56:33 51°14.861 2°52.27 21.5318 0.26298 1.561919 2.795254
2009-06-18 03:56:37 51°14.864 2°52.25 21.5113 0.26298 1.561919 2.795254
2009-06-18 03:56:43 51°14.868 2°52.221 21.5158 0.26298 1.561919 2.795254
2009-06-18 03:56:48 51°14.872 2°52.196 21.5246 0.262878 1.561273 2.795254
2009-06-18 03:56:53 51°14.877 2°52.172 21.5043 0.26298 1.561919 2.76043
2009-06-18 03:56:58 51°14.88 2°52.147 21.5227 0.262878 1.561244 2.795254
2009-06-18 03:57:03 51°14.884 2°52.122 21.5325 0.262878 1.561273 2.795254
2009-06-18 03:57:08 51°14.888 2°52.097 21.4827 0.262878 1.561273 2.795254
2009-06-18 03:57:13 51°14.891 2°52.072 21.523 0.262878 1.561273 2.795254
2009-06-18 03:57:18 51°14.893 2°52.047 21.515 0.262878 1.561302 2.795254
2009-06-18 03:57:23 51°14.896 2°52.023 21.5182 0.262878 1.561302 2.795254
2009-06-18 03:57:28 51°14.9 2°51.998 21.5258 0.262878 1.561302 2.795254
2009-06-18 03:57:33 51°14.903 2°51.974 21.507 0.262878 1.561331 2.795254
2009-06-18 03:57:38 51°14.907 2°51.95 21.5069 0.262878 1.561331 2.795254
2009-06-18 03:57:43 51°14.912 2°51.926 21.5168 0.262878 1.561331 2.795254
2009-06-18 03:57:48 51°14.915 2°51.901 21.516 0.262878 1.561331 2.795254
2009-06-18 03:57:53 51°14.919 2°51.877 21.5154 0.262878 1.561331 2.795254
2009-06-18 03:57:58 51°14.922 2°51.851 21.5147 0.262878 1.56136 2.76043
2009-06-18 03:58:03 51°14.926 2°51.826 21.5238 0.262878 1.56136 2.795254
2009-06-18 03:58:08 51°14.93 2°51.801 21.5356 0.262878 1.56136 2.795254
2009-06-18 03:58:13 51°14.933 2°51.777 21.5298 0.262878 1.56136 2.795254
2009-06-18 03:58:18 51°14.936 2°51.753 21.5058 0.262878 1.56139 2.76043
2009-06-18 03:58:23 51°14.939 2°51.728 21.5229 0.262878 1.56139 2.795254
2009-06-18 03:58:28 51°14.942 2°51.704 21.5227 0.262878 1.561419 2.795254
2009-06-18 03:58:33 51°14.945 2°51.68 21.5243 0.262878 1.561419 2.795254
2009-06-18 03:58:38 51°14.949 2°51.656 21.5305 0.262878 1.56139 2.76043
2009-06-18 03:58:43 51°14.952 2°51.631 21.521 0.262878 1.561419 2.76043
2009-06-18 03:58:48 51°14.955 2°51.607 21.5255 0.262878 1.561448 2.795254
2009-06-18 03:58:53 51°14.958 2°51.582 21.5305 0.262878 1.561448 2.795254
2009-06-18 03:58:58 51°14.961 2°51.557 21.5315 0.262878 1.561477 2.795254
2009-06-18 03:59:03 51°14.964 2°51.532 21.5249 0.262878 1.561477 2.76043
2009-06-18 03:59:08 51°14.968 2°51.507 21.5181 0.262878 1.561477 2.76043
2009-06-18 03:59:13 51°14.971 2°51.482 21.5297 0.262878 1.561506 2.795254
2009-06-18 03:59:18 51°14.974 2°51.458 21.5038 0.262878 1.561506 2.76043
2009-06-18 03:59:23 51°14.977 2°51.432 21.5144 0.262878 1.561506 2.795254
2009-06-18 03:59:28 51°14.98 2°51.408 21.526 0.262878 1.561535 2.76043
2009-06-18 03:59:33 51°14.983 2°51.383 21.5328 0.262878 1.561535 2.795254
2009-06-18 03:59:38 51°14.987 2°51.358 21.5055 0.262878 1.561535 2.795254
2009-06-18 03:59:43 51°14.99 2°51.333 21.5324 0.262878 1.561565 2.795254
2009-06-18 03:59:48 51°14.994 2°51.308 21.5211 0.262878 1.561594 2.76043
2009-06-18 03:59:53 51°14.997 2°51.283 21.5241 0.262878 1.561594 2.76043
2009-06-18 03:59:58 51°15 2°51.258 21.524 0.262878 1.561594 2.76043
2009-06-18 04:00:03 51°15.003 2°51.234 21.5363 0.262878 1.561594 2.76043
2009-06-18 04:00:08 51°15.007 2°51.209 21.5407 0.262878 1.561594 2.76043
2009-06-18 04:00:13 51°15.01 2°51.184 21.5338 0.262878 1.561623 2.76043
2009-06-18 04:00:18 51°15.014 2°51.159 21.5328 0.262878 1.561623 2.76043
2009-06-18 04:00:23 51°15.017 2°51.134 21.5285 0.262878 1.561652 2.76043
2009-06-18 04:00:28 51°15.02 2°51.109 21.5258 0.262878 1.561652 2.795254
2009-06-18 04:00:33 51°15.023 2°51.084 21.5423 0.262878 1.561681 2.795254
2009-06-18 04:00:38 51°15.026 2°51.059 21.4996 0.262878 1.561681 2.795254
2009-06-18 04:00:43 51°15.029 2°51.033 21.5385 0.262878 1.561681 2.76043
2009-06-18 04:00:48 51°15.032 2°51.008 21.5209 0.262878 1.56171 2.795254
2009-06-18 04:00:53 51°15.035 2°50.983 21.5421 0.262878 1.56171 2.795254
2009-06-18 04:00:58 51°15.039 2°50.958 21.5338 0.262878 1.56171 2.76043
2009-06-18 04:01:04 51°15.042 2°50.928 21.5475 0.262878 1.56174 2.76043
2009-06-18 04:01:08 51°15.045 2°50.908 21.5174 0.262878 1.56174 2.76043
2009-06-18 04:01:13 51°15.048 2°50.882 21.5355 0.262878 1.56174 2.76043
2009-06-18 04:01:18 51°15.05 2°50.856 21.5275 0.262878 1.56174 2.795254
2009-06-18 04:01:23 51°15.053 2°50.831 21.5367 0.262878 1.561769 2.76043
2009-06-18 04:01:28 51°15.056 2°50.806 21.526 0.262878 1.561798 2.76043
2009-06-18 04:01:33 51°15.059 2°50.781 21.528 0.262878 1.561769 2.76043
2009-06-18 04:01:38 51°15.062 2°50.756 21.5157 0.262878 1.561769 2.76043
2009-06-18 04:01:44 51°15.066 2°50.726 21.5279 0.262878 1.561798 2.795254
2009-06-18 04:01:48 51°15.069 2°50.706 21.5422 0.262878 1.561798 2.76043
2009-06-18 04:01:53 51°15.072 2°50.681 21.5266 0.262878 1.561827 2.76043
2009-06-18 04:01:58 51°15.076 2°50.657 21.5297 0.262878 1.561856 2.795254
2009-06-18 04:02:03 51°15.08 2°50.632 21.5545 0.262878 1.561856 2.795254
2009-06-18 04:02:08 51°15.085 2°50.608 21.5205 0.262878 1.561856 2.76043
2009-06-18 04:02:13 51°15.089 2°50.583 21.5547 0.262878 1.561885 2.76043
2009-06-18 04:02:18 51°15.093 2°50.559 21.5337 0.262878 1.561885 2.76043
2009-06-18 04:02:23 51°15.098 2°50.535 21.5471 0.262878 1.561915 2.76043
2009-06-18 04:02:28 51°15.103 2°50.51 21.5394 0.262878 1.561915 2.76043
2009-06-18 04:02:33 51°15.107 2°50.486 21.5294 0.262878 1.561915 2.76043
2009-06-18 04:02:38 51°15.112 2°50.462 21.5485 0.262878 1.561915 2.76043
2009-06-18 04:02:43 51°15.117 2°50.438 21.546 0.262878 1.561944 2.76043
2009-06-18 04:02:48 51°15.122 2°50.413 21.5482 0.262878 1.561944 2.76043
2009-06-18 04:02:53 51°15.127 2°50.389 21.5464 0.262878 1.561973 2.76043
2009-06-18 04:02:58 51°15.132 2°50.364 21.5529 0.262878 1.562002 2.76043
2009-06-18 04:03:03 51°15.137 2°50.34 21.5619 0.262878 1.562031 2.76043
2009-06-18 04:03:08 51°15.142 2°50.316 21.5511 0.262878 1.562031 2.76043
2009-06-18 04:03:13 51°15.147 2°50.292 21.5435 0.262878 1.562031 2.76043
2009-06-18 04:03:18 51°15.151 2°50.268 21.5509 0.262878 1.562031 2.76043
2009-06-18 04:03:23 51°15.156 2°50.244 21.5429 0.262878 1.562061 2.76043
2009-06-18 04:03:28 51°15.161 2°50.219 21.5552 0.262878 1.562061 2.76043
2009-06-18 04:03:33 51°15.165 2°50.195 21.5469 0.262878 1.562061 2.76043
2009-06-18 04:03:38 51°15.17 2°50.17 21.5565 0.262878 1.562061 2.76043
2009-06-18 04:03:43 51°15.175 2°50.146 21.5515 0.262878 1.56209 2.76043
2009-06-18 04:03:48 51°15.18 2°50.122 21.5609 0.262878 1.56209 2.795254
2009-06-18 04:03:53 51°15.185 2°50.097 21.5588 0.262878 1.56209 2.76043
2009-06-18 04:03:58 51°15.19 2°50.074 21.5197 0.262878 1.56209 2.76043
2009-06-18 04:04:04 51°15.196 2°50.045 21.5435 0.262878 1.562119 2.76043
2009-06-18 04:04:08 51°15.2 2°50.026 21.5499 0.262878 1.562119 2.76043
2009-06-18 04:04:13 51°15.205 2°50.002 21.5575 0.262878 1.562148 2.76043
2009-06-18 04:04:18 51°15.21 2°49.977 21.5569 0.262878 1.562148 2.76043
2009-06-18 04:04:23 51°15.214 2°49.953 21.5692 0.262878 1.562148 2.76043
2009-06-18 04:04:28 51°15.219 2°49.929 21.5581 0.262878 1.562177 2.76043
2009-06-18 04:04:33 51°15.225 2°49.905 21.5598 0.262878 1.562177 2.76043
2009-06-18 04:04:38 51°15.23 2°49.881 21.5417 0.262878 1.562177 2.76043
2009-06-18 04:04:43 51°15.234 2°49.857 21.5532 0.262878 1.562207 2.76043
2009-06-18 04:04:48 51°15.24 2°49.833 21.5573 0.262878 1.562207 2.76043
2009-06-18 04:04:53 51°15.245 2°49.809 21.5499 0.262878 1.562236 2.76043
2009-06-18 04:04:58 51°15.249 2°49.785 21.5542 0.262878 1.562207 2.76043
2009-06-18 04:05:03 51°15.254 2°49.761 21.5481 0.262878 1.562236 2.76043
2009-06-18 04:05:08 51°15.259 2°49.736 21.5517 0.262878 1.562236 2.76043
2009-06-18 04:05:13 51°15.264 2°49.712 21.5614 0.262878 1.562236 2.76043
2009-06-18 04:05:18 51°15.268 2°49.687 21.5544 0.262878 1.562265 2.76043
2009-06-18 04:05:23 51°15.273 2°49.663 21.5416 0.262878 1.562265 2.76043
2009-06-18 04:05:28 51°15.278 2°49.639 21.5497 0.262878 1.562323 2.76043
2009-06-18 04:05:33 51°15.282 2°49.614 21.5273 0.262878 1.562294 2.76043
2009-06-18 04:05:38 51°15.287 2°49.589 21.554 0.262878 1.562294 2.76043
2009-06-18 04:05:43 51°15.291 2°49.564 21.5549 0.262878 1.562323 2.76043
2009-06-18 04:05:48 51°15.296 2°49.54 21.5482 0.262878 1.562323 2.76043
2009-06-18 04:05:53 51°15.3 2°49.515 21.5365 0.262878 1.562352 2.76043
2009-06-18 04:05:58 51°15.305 2°49.491 21.5525 0.262878 1.562382 2.76043
2009-06-18 04:06:03 51°15.31 2°49.466 21.5634 0.262878 1.562382 2.76043
2009-06-18 04:06:08 51°15.315 2°49.442 21.5638 0.262878 1.562382 2.76043
2009-06-18 04:06:13 51°15.319 2°49.418 21.5609 0.262878 1.562411 2.76043
2009-06-18 04:06:18 51°15.324 2°49.393 21.5647 0.262878 1.56244 2.795254
2009-06-18 04:06:23 51°15.329 2°49.369 21.5637 0.262878 1.56244 2.76043
2009-06-18 04:06:28 51°15.333 2°49.345 21.5529 0.262878 1.56244 2.76043
2009-06-18 04:06:33 51°15.338 2°49.321 21.567 0.262878 1.562469 2.76043
2009-06-18 04:06:38 51°15.343 2°49.297 21.5514 0.262878 1.562469 2.76043
2009-06-18 04:06:43 51°15.348 2°49.272 21.5603 0.262878 1.562498 2.76043
2009-06-18 04:06:48 51°15.352 2°49.248 21.5656 0.262878 1.562498 2.76043
2009-06-18 04:06:53 51°15.357 2°49.223 21.5616 0.262878 1.562528 2.76043
2009-06-18 04:06:58 51°15.361 2°49.199 21.5707 0.262878 1.562528 2.76043
2009-06-18 04:07:03 51°15.366 2°49.175 21.5592 0.262878 1.562557 2.76043
2009-06-18 04:07:08 51°15.371 2°49.151 21.5609 0.262878 1.562557 2.76043
2009-06-18 04:07:13 51°15.375 2°49.127 21.5797 0.262878 1.562586 2.76043
2009-06-18 04:07:18 51°15.38 2°49.103 21.5513 0.262878 1.562615 2.76043
2009-06-18 04:07:23 51°15.384 2°49.078 21.5462 0.262878 1.562615 2.76043
2009-06-18 04:07:28 51°15.389 2°49.054 21.5663 0.262878 1.562645 2.76043
2009-06-18 04:07:33 51°15.393 2°49.03 21.5729 0.262878 1.562645 2.76043
2009-06-18 04:07:38 51°15.398 2°49.006 21.5578 0.262878 1.562645 2.76043
2009-06-18 04:07:43 51°15.402 2°48.982 21.5652 0.262878 1.562674 2.76043
2009-06-18 04:07:48 51°15.406 2°48.958 21.5621 0.262878 1.562674 2.795254
2009-06-18 04:07:53 51°15.411 2°48.934 21.5635 0.262878 1.562703 2.76043
2009-06-18 04:07:58 51°15.416 2°48.91 21.5632 0.262878 1.562732 2.76043
2009-06-18 04:08:03 51°15.42 2°48.886 21.5651 0.262878 1.562761 2.76043
2009-06-18 04:08:08 51°15.424 2°48.861 21.5606 0.262878 1.562761 2.76043
2009-06-18 04:08:13 51°15.428 2°48.837 21.5533 0.262878 1.562732 2.76043
2009-06-18 04:08:18 51°15.433 2°48.813 21.5743 0.262878 1.562791 2.76043
2009-06-18 04:08:23 51°15.437 2°48.788 21.5728 0.262878 1.562791 2.76043
2009-06-18 04:08:28 51°15.442 2°48.765 21.5797 0.262878 1.562791 2.76043
2009-06-18 04:08:33 51°15.447 2°48.741 21.5801 0.262878 1.56282 2.76043
2009-06-18 04:08:38 51°15.452 2°48.717 21.5724 0.262878 1.56282 2.76043
2009-06-18 04:08:43 51°15.457 2°48.694 21.5624 0.262878 1.562849 2.76043
2009-06-18 04:08:48 51°15.462 2°48.67 21.5735 0.262878 1.562878 2.76043
2009-06-18 04:08:53 51°15.467 2°48.646 21.5784 0.262878 1.562878 2.76043
2009-06-18 04:08:58 51°15.472 2°48.622 21.5684 0.262878 1.562907 2.76043
2009-06-18 04:09:03 51°15.477 2°48.599 21.5725 0.262878 1.562907 2.76043
2009-06-18 04:09:08 51°15.483 2°48.575 21.5663 0.262878 1.562907 2.76043
2009-06-18 04:09:13 51°15.488 2°48.552 21.5541 0.262878 1.562937 2.76043
2009-06-18 04:09:18 51°15.494 2°48.528 21.5841 0.262878 1.562937 2.76043
2009-06-18 04:09:23 51°15.499 2°48.505 21.5647 0.262878 1.562966 2.76043
2009-06-18 04:09:28 51°15.504 2°48.481 21.5728 0.262878 1.562966 2.76043
2009-06-18 04:09:33 51°15.51 2°48.458 21.5807 0.262878 1.562995 2.76043
2009-06-18 04:09:38 51°15.516 2°48.434 21.5488 0.262878 1.562995 2.76043
2009-06-18 04:09:43 51°15.521 2°48.411 21.5821 0.262878 1.562995 2.795254
2009-06-18 04:09:48 51°15.526 2°48.387 21.59 0.262878 1.562995 2.795254
2009-06-18 04:09:53 51°15.532 2°48.365 21.5677 0.262878 1.563024 2.76043
2009-06-18 04:09:58 51°15.537 2°48.341 21.5775 0.262878 1.563054 2.76043
2009-06-18 04:10:04 51°15.543 2°48.313 21.5635 0.262878 1.563054 2.76043
2009-06-18 04:10:08 51°15.547 2°48.294 21.578 0.262878 1.563054 2.76043
2009-06-18 04:10:13 51°15.553 2°48.27 21.59 0.262878 1.563054 2.76043
2009-06-18 04:10:18 51°15.559 2°48.247 21.5601 0.262878 1.563083 2.76043
2009-06-18 04:10:23 51°15.564 2°48.223 21.5834 0.262878 1.563083 2.76043
2009-06-18 04:10:28 51°15.569 2°48.2 21.5874 0.262878 1.563112 2.76043
2009-06-18 04:10:33 51°15.574 2°48.175 21.5891 0.262878 1.563083 2.76043
2009-06-18 04:10:38 51°15.579 2°48.151 21.5801 0.262878 1.563083 2.76043
2009-06-18 04:10:44 51°15.585 2°48.122 21.5856 0.262878 1.563112 2.76043
2009-06-18 04:10:48 51°15.589 2°48.103 21.5726 0.262878 1.563112 2.76043
2009-06-18 04:10:53 51°15.594 2°48.079 21.5903 0.262878 1.563141 2.795254
2009-06-18 04:10:58 51°15.599 2°48.056 21.5895 0.262878 1.563141 2.76043
2009-06-18 04:11:03 51°15.604 2°48.032 21.5706 0.262878 1.563141 2.76043
2009-06-18 04:11:08 51°15.609 2°48.008 21.5813 0.262878 1.563141 2.76043
2009-06-18 04:11:13 51°15.614 2°47.984 21.5877 0.262878 1.563141 2.76043
2009-06-18 04:11:18 51°15.62 2°47.96 21.5814 0.262878 1.563171 2.76043
2009-06-18 04:11:23 51°15.625 2°47.936 21.5878 0.262878 1.563171 2.76043
2009-06-18 04:11:28 51°15.63 2°47.912 21.5896 0.262878 1.563171 2.795254
2009-06-18 04:11:33 51°15.635 2°47.888 21.5858 0.262878 1.5632 2.76043
2009-06-18 04:11:38 51°15.64 2°47.864 21.5925 0.262878 1.5632 2.76043
2009-06-18 04:11:43 51°15.645 2°47.839 21.5706 0.262878 1.563171 2.76043
2009-06-18 04:11:48 51°15.65 2°47.816 21.5976 0.262878 1.5632 2.76043
2009-06-18 04:11:53 51°15.656 2°47.792 21.5773 0.262878 1.5632 2.795254
2009-06-18 04:11:58 51°15.661 2°47.768 21.5922 0.262878 1.563229 2.76043
2009-06-18 04:12:03 51°15.666 2°47.744 21.5749 0.262878 1.5632 2.76043
2009-06-18 04:12:08 51°15.671 2°47.72 21.596 0.262878 1.5632 2.76043
2009-06-18 04:12:13 51°15.677 2°47.697 21.5681 0.262878 1.563229 2.76043
2009-06-18 04:12:18 51°15.683 2°47.673 21.5891 0.262878 1.5632 2.795254
2009-06-18 04:12:23 51°15.689 2°47.649 21.5854 0.262878 1.563229 2.76043
2009-06-18 04:12:28 51°15.695 2°47.626 21.5924 0.262878 1.563258 2.76043
2009-06-18 04:12:33 51°15.701 2°47.603 21.5895 0.262878 1.563258 2.76043
2009-06-18 04:12:38 51°15.707 2°47.579 21.5703 0.262878 1.563258 2.76043
2009-06-18 04:12:43 51°15.713 2°47.556 21.5947 0.262878 1.563258 2.76043
2009-06-18 04:12:48 51°15.719 2°47.533 21.5773 0.262878 1.563287 2.76043
2009-06-18 04:12:53 51°15.725 2°47.509 21.5823 0.262878 1.563287 2.76043
2009-06-18 04:12:58 51°15.731 2°47.486 21.5938 0.262878 1.563287 2.795254
2009-06-18 04:13:04 51°15.739 2°47.458 21.5956 0.262878 1.563317 2.76043
2009-06-18 04:13:08 51°15.744 2°47.44 21.5897 0.262878 1.563317 2.76043
2009-06-18 04:13:13 51°15.75 2°47.416 21.5973 0.262878 1.563346 2.76043
2009-06-18 04:13:18 51°15.756 2°47.393 21.5992 0.262878 1.563375 2.76043
2009-06-18 04:13:23 51°15.762 2°47.369 21.5886 0.262878 1.563346 2.76043
2009-06-18 04:13:28 51°15.768 2°47.346 21.6046 0.262878 1.563404 2.76043
2009-06-18 04:13:33 51°15.774 2°47.323 21.5968 0.262878 1.563404 2.76043
2009-06-18 04:13:38 51°15.78 2°47.299 21.5965 0.262878 1.563404 2.76043
2009-06-18 04:13:43 51°15.786 2°47.276 21.5925 0.262878 1.563434 2.76043
2009-06-18 04:13:48 51°15.792 2°47.253 21.5912 0.262878 1.563434 2.76043
2009-06-18 04:13:53 51°15.798 2°47.229 21.5902 0.262878 1.563463 2.76043
2009-06-18 04:13:58 51°15.805 2°47.206 21.5971 0.262878 1.563492 2.76043
2009-06-18 04:14:03 51°15.811 2°47.183 21.5941 0.262878 1.563492 2.76043
2009-06-18 04:14:08 51°15.818 2°47.16 21.5974 0.262878 1.563492 2.76043
2009-06-18 04:14:13 51°15.824 2°47.137 21.6054 0.262878 1.563521 2.76043
2009-06-18 04:14:18 51°15.83 2°47.114 21.5996 0.262878 1.563551 2.76043
2009-06-18 04:14:23 51°15.836 2°47.091 21.5885 0.262878 1.563551 2.76043
2009-06-18 04:14:28 51°15.842 2°47.067 21.5818 0.262878 1.56358 2.76043
2009-06-18 04:14:33 51°15.849 2°47.044 21.5947 0.262878 1.563609 2.76043
2009-06-18 04:14:38 51°15.855 2°47.021 21.6011 0.262878 1.563609 2.76043
2009-06-18 04:14:43 51°15.861 2°46.998 21.5895 0.262878 1.563638 2.76043
2009-06-18 04:14:48 51°15.867 2°46.975 21.5975 0.262878 1.563638 2.76043
2009-06-18 04:14:53 51°15.873 2°46.952 21.5938 0.262878 1.563668 2.76043
2009-06-18 04:14:58 51°15.88 2°46.929 21.6066 0.262878 1.563697 2.76043
2009-06-18 04:15:03 51°15.886 2°46.907 21.6062 0.262878 1.563726 2.76043
2009-06-18 04:15:08 51°15.893 2°46.884 21.606 0.262878 1.563726 2.76043
2009-06-18 04:15:13 51°15.9 2°46.862 21.6081 0.262878 1.563726 2.76043
2009-06-18 04:15:18 51°15.906 2°46.839 21.5958 0.262878 1.563755 2.76043
2009-06-18 04:15:23 51°15.913 2°46.817 21.6094 0.262878 1.563814 2.76043
2009-06-18 04:15:28 51°15.92 2°46.794 21.6136 0.262878 1.563814 2.76043
2009-06-18 04:15:33 51°15.927 2°46.772 21.5855 0.262878 1.563843 2.76043
2009-06-18 04:15:38 51°15.934 2°46.75 21.6042 0.262878 1.563843 2.76043
2009-06-18 04:15:43 51°15.941 2°46.728 21.6054 0.262878 1.563814 2.76043
2009-06-18 04:15:48 51°15.949 2°46.707 21.5941 0.262878 1.563872 2.76043
2009-06-18 04:15:53 51°15.956 2°46.685 21.5996 0.262878 1.563872 2.76043
2009-06-18 04:15:58 51°15.963 2°46.663 21.6093 0.262878 1.563872 2.76043
2009-06-18 04:16:03 51°15.97 2°46.641 21.6151 0.262878 1.563902 2.76043
2009-06-18 04:16:08 51°15.978 2°46.62 21.598 0.262878 1.563902 2.76043
2009-06-18 04:16:13 51°15.984 2°46.597 21.6041 0.262878 1.563931 2.76043
2009-06-18 04:16:18 51°15.991 2°46.574 21.61 0.262878 1.563931 2.76043
2009-06-18 04:16:23 51°15.998 2°46.552 21.6187 0.262878 1.56396 2.76043
2009-06-18 04:16:28 51°16.005 2°46.53 21.6146 0.262878 1.56396 2.76043
2009-06-18 04:16:33 51°16.013 2°46.508 21.6113 0.262878 1.56399 2.76043
2009-06-18 04:16:38 51°16.02 2°46.486 21.6013 0.262878 1.56399 2.76043
2009-06-18 04:16:43 51°16.027 2°46.464 21.6104 0.262878 1.564019 2.76043
2009-06-18 04:16:48 51°16.034 2°46.442 21.6278 0.262878 1.564019 2.76043
2009-06-18 04:16:53 51°16.041 2°46.419 21.5978 0.262878 1.564048 2.76043
2009-06-18 04:16:58 51°16.048 2°46.396 21.6061 0.262981 1.564695 2.76043
2009-06-18 04:17:03 51°16.054 2°46.374 21.6093 0.262878 1.564048 2.76043
2009-06-18 04:17:08 51°16.062 2°46.352 21.6063 0.262878 1.564048 2.76043
2009-06-18 04:17:13 51°16.068 2°46.329 21.601 0.262878 1.564077 2.76043
2009-06-18 04:17:18 51°16.075 2°46.307 21.6104 0.262981 1.564724 2.76043
2009-06-18 04:17:23 51°16.082 2°46.285 21.6114 0.262878 1.564107 2.76043
2009-06-18 04:17:28 51°16.089 2°46.263 21.6171 0.262878 1.564107 2.76043
2009-06-18 04:17:33 51°16.096 2°46.241 21.6269 0.262981 1.564783 2.76043
2009-06-18 04:17:38 51°16.103 2°46.219 21.5901 0.262981 1.564783 2.76043
2009-06-18 04:17:43 51°16.109 2°46.196 21.6121 0.262878 1.564136 2.76043
2009-06-18 04:17:48 51°16.116 2°46.174 21.6209 0.262878 1.564165 2.76043
2009-06-18 04:17:53 51°16.123 2°46.151 21.6086 0.262878 1.564165 2.76043
2009-06-18 04:17:58 51°16.13 2°46.129 21.6245 0.262878 1.564165 2.76043
2009-06-18 04:18:03 51°16.136 2°46.107 21.596 0.262878 1.564194 2.76043
2009-06-18 04:18:08 51°16.143 2°46.085 21.625 0.262878 1.564194 2.76043
2009-06-18 04:18:13 51°16.15 2°46.063 21.5918 0.262981 1.564871 2.76043
2009-06-18 04:18:18 51°16.157 2°46.041 21.6093 0.262981 1.564871 2.76043
2009-06-18 04:18:23 51°16.164 2°46.019 21.6175 0.262878 1.564224 2.76043
2009-06-18 04:18:28 51°16.171 2°45.997 21.6129 0.262981 1.564871 2.76043
2009-06-18 04:18:33 51°16.178 2°45.976 21.6261 0.262981 1.564929 2.76043
2009-06-18 04:18:38 51°16.184 2°45.954 21.6148 0.262981 1.564929 2.76043
2009-06-18 04:18:43 51°16.191 2°45.931 21.6176 0.262981 1.564929 2.76043
2009-06-18 04:18:48 51°16.198 2°45.909 21.6206 0.262981 1.564958 2.76043
2009-06-18 04:18:53 51°16.204 2°45.887 21.6164 0.262981 1.564958 2.76043
2009-06-18 04:18:58 51°16.211 2°45.865 21.624 0.262981 1.564988 2.76043
2009-06-18 04:19:04 51°16.219 2°45.838 21.5923 0.262981 1.564988 2.76043
2009-06-18 04:19:08 51°16.224 2°45.82 21.6143 0.262981 1.564988 2.76043
2009-06-18 04:19:13 51°16.231 2°45.798 21.6219 0.262981 1.565017 2.795254
2009-06-18 04:19:18 51°16.237 2°45.776 21.6141 0.262981 1.565017 2.76043
2009-06-18 04:19:23 51°16.244 2°45.754 21.606 0.262981 1.565046 2.76043
2009-06-18 04:19:28 51°16.25 2°45.732 21.6066 0.262981 1.565046 2.76043
2009-06-18 04:19:33 51°16.257 2°45.71 21.6336 0.262878 1.564429 2.76043
2009-06-18 04:19:38 51°16.265 2°45.689 21.5883 0.262878 1.564429 2.76043
2009-06-18 04:19:44 51°16.273 2°45.663 21.6236 0.262981 1.565076 2.76043
2009-06-18 04:19:48 51°16.28 2°45.647 21.6226 0.262878 1.564458 2.76043
2009-06-18 04:19:53 51°16.288 2°45.626 21.6325 0.262981 1.565105 2.76043
2009-06-18 04:19:58 51°16.296 2°45.606 21.6077 0.262981 1.565134 2.76043
2009-06-18 04:20:03 51°16.304 2°45.586 21.6321 0.262981 1.565164 2.76043
2009-06-18 04:20:08 51°16.313 2°45.566 21.6067 0.262981 1.565164 2.76043
2009-06-18 04:20:13 51°16.321 2°45.546 21.6205 0.262981 1.565164 2.76043
2009-06-18 04:20:18 51°16.33 2°45.526 21.6065 0.262981 1.565164 2.76043
2009-06-18 04:20:23 51°16.339 2°45.506 21.6297 0.262981 1.565193 2.76043
2009-06-18 04:20:28 51°16.348 2°45.486 21.628 0.262981 1.565193 2.76043
2009-06-18 04:20:33 51°16.357 2°45.466 21.6192 0.262981 1.565222 2.76043
2009-06-18 04:20:38 51°16.366 2°45.447 21.6357 0.262981 1.565222 2.76043
2009-06-18 04:20:43 51°16.374 2°45.427 21.6214 0.262878 1.564575 2.76043
2009-06-18 04:20:48 51°16.383 2°45.407 21.6352 0.262981 1.565251 2.76043
2009-06-18 04:20:53 51°16.392 2°45.387 21.6081 0.262981 1.565251 2.76043
2009-06-18 04:20:58 51°16.401 2°45.368 21.6328 0.262981 1.56531 2.76043
2009-06-18 04:21:03 51°16.41 2°45.348 21.6395 0.262981 1.56531 2.76043
2009-06-18 04:21:08 51°16.419 2°45.329 21.6226 0.262981 1.56531 2.76043
2009-06-18 04:21:13 51°16.428 2°45.309 21.627 0.262981 1.56531 2.76043
2009-06-18 04:21:18 51°16.437 2°45.29 21.6183 0.262981 1.56531 2.76043
2009-06-18 04:21:24 51°16.447 2°45.267 21.6327 0.262981 1.565339 2.76043
2009-06-18 04:21:28 51°16.455 2°45.251 21.6329 0.262981 1.565369 2.76043
2009-06-18 04:21:33 51°16.463 2°45.231 21.6339 0.262981 1.565369 2.76043
2009-06-18 04:21:38 51°16.472 2°45.212 21.608 0.262981 1.565369 2.76043
2009-06-18 04:21:43 51°16.481 2°45.192 21.6444 0.262981 1.565369 2.76043
2009-06-18 04:21:48 51°16.49 2°45.173 21.632 0.262981 1.565398 2.76043
2009-06-18 04:21:53 51°16.499 2°45.154 21.6362 0.262981 1.565398 2.76043
2009-06-18 04:21:58 51°16.508 2°45.134 21.6366 0.262981 1.565427 2.76043
2009-06-18 04:22:04 51°16.518 2°45.11 21.6348 0.262981 1.565427 2.76043
2009-06-18 04:22:08 51°16.525 2°45.094 21.6283 0.262981 1.565427 2.76043
2009-06-18 04:22:13 51°16.534 2°45.074 21.6336 0.262981 1.565457 2.76043
2009-06-18 04:22:18 51°16.543 2°45.053 21.6316 0.262981 1.565486 2.76043
2009-06-18 04:22:23 51°16.551 2°45.033 21.6352 0.262981 1.565515 2.76043
2009-06-18 04:22:28 51°16.56 2°45.013 21.6344 0.262981 1.565515 2.76043
2009-06-18 04:22:33 51°16.569 2°44.994 21.6316 0.262981 1.565515 2.76043
2009-06-18 04:22:38 51°16.578 2°44.974 21.629 0.262981 1.565515 2.76043
2009-06-18 04:22:43 51°16.586 2°44.954 21.6302 0.262981 1.565515 2.76043
2009-06-18 04:22:48 51°16.595 2°44.933 21.6385 0.262981 1.565515 2.76043
2009-06-18 04:22:53 51°16.603 2°44.913 21.6385 0.262981 1.565545 2.76043
2009-06-18 04:22:57 51°16.61 2°44.896 21.6199 0.262878 1.564927 2.76043
2009-06-18 04:23:03 51°16.62 2°44.872 21.6373 0.262878 1.564927 2.76043
2009-06-18 04:23:08 51°16.629 2°44.852 21.6415 0.262878 1.564927 2.76043
2009-06-18 04:23:13 51°16.638 2°44.832 21.6245 0.262981 1.565574 2.76043
2009-06-18 04:23:18 51°16.646 2°44.811 21.6289 0.262981 1.565603 2.76043
2009-06-18 04:23:23 51°16.654 2°44.791 21.6417 0.262981 1.565633 2.76043
2009-06-18 04:23:28 51°16.663 2°44.771 21.6369 0.262981 1.565633 2.76043
2009-06-18 04:23:33 51°16.672 2°44.751 21.632 0.262981 1.565633 2.76043
2009-06-18 04:23:38 51°16.681 2°44.73 21.6469 0.262981 1.565633 2.76043
2009-06-18 04:23:44 51°16.691 2°44.706 21.6442 0.262981 1.565662 2.76043
2009-06-18 04:23:48 51°16.698 2°44.69 21.6431 0.262981 1.565662 2.76043
2009-06-18 04:23:53 51°16.707 2°44.67 21.6372 0.262981 1.565691 2.76043
2009-06-18 04:23:58 51°16.716 2°44.65 21.6434 0.262981 1.565721 2.76043
2009-06-18 04:24:03 51°16.725 2°44.63 21.6487 0.262981 1.565721 2.76043
2009-06-18 04:24:08 51°16.734 2°44.61 21.6263 0.262981 1.565721 2.76043
2009-06-18 04:24:13 51°16.743 2°44.59 21.6486 0.262981 1.565721 2.76043
2009-06-18 04:24:18 51°16.752 2°44.57 21.6335 0.262981 1.56575 2.76043
2009-06-18 04:24:24 51°16.762 2°44.546 21.6486 0.262981 1.56575 2.76043
2009-06-18 04:24:28 51°16.769 2°44.53 21.6421 0.262981 1.565779 2.76043
2009-06-18 04:24:33 51°16.778 2°44.51 21.6343 0.262981 1.565809 2.76043
2009-06-18 04:24:38 51°16.787 2°44.49 21.6557 0.262981 1.565809 2.76043
2009-06-18 04:24:43 51°16.796 2°44.47 21.6448 0.262981 1.565809 2.76043
2009-06-18 04:24:48 51°16.805 2°44.449 21.6317 0.262981 1.565809 2.76043
2009-06-18 04:24:53 51°16.813 2°44.429 21.6471 0.262981 1.565838 2.76043
2009-06-18 04:24:58 51°16.822 2°44.408 21.6367 0.262981 1.565867 2.76043
2009-06-18 04:25:03 51°16.831 2°44.387 21.6559 0.262981 1.565867 2.76043
2009-06-18 04:25:08 51°16.839 2°44.367 21.6401 0.262981 1.565867 2.76043
2009-06-18 04:25:13 51°16.848 2°44.347 21.6624 0.262981 1.565897 2.76043
2009-06-18 04:25:18 51°16.857 2°44.326 21.6397 0.262878 1.565279 2.76043
2009-06-18 04:25:23 51°16.865 2°44.305 21.6573 0.262981 1.565926 2.76043
2009-06-18 04:25:28 51°16.874 2°44.285 21.6422 0.262981 1.565955 2.76043
2009-06-18 04:25:33 51°16.882 2°44.264 21.6556 0.262878 1.565308 2.76043
2009-06-18 04:25:38 51°16.891 2°44.243 21.6458 0.262878 1.565308 2.76043
2009-06-18 04:25:43 51°16.9 2°44.223 21.6448 0.262981 1.565985 2.76043
2009-06-18 04:25:48 51°16.908 2°44.202 21.6612 0.262878 1.565367 2.76043
2009-06-18 04:25:53 51°16.917 2°44.181 21.6421 0.262878 1.565367 2.76043
2009-06-18 04:25:58 51°16.925 2°44.16 21.6668 0.262878 1.565367 2.76043
2009-06-18 04:26:03 51°16.934 2°44.139 21.646 0.262878 1.565396 2.76043
2009-06-18 04:26:08 51°16.942 2°44.119 21.6496 0.262878 1.565396 2.76043
2009-06-18 04:26:13 51°16.951 2°44.098 21.6565 0.262981 1.566073 2.76043
2009-06-18 04:26:18 51°16.959 2°44.077 21.645 0.262878 1.565454 2.76043
2009-06-18 04:26:23 51°16.968 2°44.056 21.6474 0.262878 1.565454 2.76043
2009-06-18 04:26:28 51°16.977 2°44.036 21.6534 0.262878 1.565454 2.76043
2009-06-18 04:26:33 51°16.985 2°44.015 21.6592 0.262878 1.565484 2.76043
2009-06-18 04:26:38 51°16.994 2°43.995 21.6643 0.262878 1.565484 2.76043
2009-06-18 04:26:44 51°17.004 2°43.97 21.6563 0.262878 1.565513 2.76043
2009-06-18 04:26:48 51°17.011 2°43.953 21.6651 0.262878 1.565542 2.76043
2009-06-18 04:26:53 51°17.02 2°43.932 21.6489 0.262878 1.565572 2.76043
2009-06-18 04:26:58 51°17.028 2°43.911 21.6615 0.262878 1.565572 2.76043
2009-06-18 04:27:03 51°17.037 2°43.89 21.6585 0.262878 1.565572 2.76043
2009-06-18 04:27:08 51°17.046 2°43.87 21.6739 0.262878 1.565572 2.76043
2009-06-18 04:27:13 51°17.055 2°43.85 21.6557 0.262878 1.565601 2.76043
2009-06-18 04:27:18 51°17.064 2°43.829 21.6597 0.262878 1.56563 2.76043
2009-06-18 04:27:23 51°17.072 2°43.808 21.667 0.262878 1.56563 2.76043
2009-06-18 04:27:28 51°17.081 2°43.787 21.6644 0.262878 1.56563 2.76043
2009-06-18 04:27:33 51°17.089 2°43.767 21.6605 0.262878 1.56566 2.725606
2009-06-18 04:27:38 51°17.098 2°43.746 21.6678 0.262878 1.56566 2.725606
2009-06-18 04:27:43 51°17.106 2°43.725 21.6685 0.262878 1.56566 2.76043
2009-06-18 04:27:48 51°17.115 2°43.704 21.6627 0.262878 1.565689 2.725606
2009-06-18 04:27:53 51°17.123 2°43.684 21.6674 0.262878 1.565689 2.76043
2009-06-18 04:27:58 51°17.132 2°43.663 21.6697 0.262878 1.565689 2.76043
2009-06-18 04:28:03 51°17.14 2°43.642 21.6558 0.262775 1.565042 2.76043
2009-06-18 04:28:08 51°17.149 2°43.622 21.6734 0.262775 1.565042 2.76043
2009-06-18 04:28:13 51°17.158 2°43.601 21.6703 0.262878 1.565719 2.76043
2009-06-18 04:28:18 51°17.167 2°43.581 21.6727 0.262878 1.565719 2.76043
2009-06-18 04:28:23 51°17.176 2°43.56 21.669 0.262775 1.565071 2.76043
2009-06-18 04:28:28 51°17.184 2°43.539 21.6653 0.262878 1.565748 2.76043
2009-06-18 04:28:33 51°17.193 2°43.519 21.6839 0.262878 1.565777 2.76043
2009-06-18 04:28:38 51°17.202 2°43.498 21.6563 0.262878 1.565777 2.76043
2009-06-18 04:28:43 51°17.21 2°43.477 21.6702 0.262775 1.56513 2.76043
2009-06-18 04:28:48 51°17.219 2°43.456 21.6767 0.262775 1.56513 2.76043
2009-06-18 04:28:53 51°17.228 2°43.436 21.6782 0.262775 1.565159 2.76043
2009-06-18 04:28:58 51°17.236 2°43.415 21.6686 0.262775 1.565159 2.725606
2009-06-18 04:29:03 51°17.245 2°43.395 21.6658 0.262775 1.565159 2.76043
2009-06-18 04:29:08 51°17.254 2°43.374 21.6865 0.262775 1.565159 2.76043
2009-06-18 04:29:13 51°17.263 2°43.354 21.6727 0.262775 1.565159 2.76043
2009-06-18 04:29:18 51°17.271 2°43.334 21.682 0.262775 1.565159 2.76043
2009-06-18 04:29:23 51°17.28 2°43.313 21.6743 0.262775 1.565159 2.76043
2009-06-18 04:29:28 51°17.289 2°43.293 21.6817 0.262775 1.565188 2.76043
2009-06-18 04:29:33 51°17.298 2°43.272 21.69 0.262775 1.565188 2.725606
2009-06-18 04:29:38 51°17.307 2°43.252 21.6739 0.262775 1.565188 2.725606
2009-06-18 04:29:43 51°17.315 2°43.232 21.6849 0.262775 1.565188 2.76043
2009-06-18 04:29:48 51°17.324 2°43.211 21.6884 0.262775 1.565218 2.76043
2009-06-18 04:29:53 51°17.333 2°43.191 21.6804 0.262775 1.565218 2.76043
2009-06-18 04:29:58 51°17.342 2°43.17 21.6886 0.262775 1.565218 2.725606
2009-06-18 04:30:03 51°17.35 2°43.15 21.6912 0.262775 1.565218 2.725606
2009-06-18 04:30:08 51°17.359 2°43.13 21.6867 0.262775 1.565218 2.725606
2009-06-18 04:30:13 51°17.368 2°43.11 21.6764 0.262775 1.565247 2.76043
2009-06-18 04:30:18 51°17.377 2°43.089 21.6828 0.262775 1.565247 2.76043
2009-06-18 04:30:24 51°17.387 2°43.065 21.6939 0.262672 1.564599 2.76043
2009-06-18 04:30:28 51°17.395 2°43.049 21.6887 0.262672 1.564629 2.725606
2009-06-18 04:30:33 51°17.403 2°43.029 21.6787 0.262672 1.564658 2.725606
2009-06-18 04:30:38 51°17.412 2°43.008 21.6903 0.262672 1.564658 2.725606
2009-06-18 04:30:43 51°17.421 2°42.988 21.6967 0.262672 1.564658 2.76043
2009-06-18 04:30:48 51°17.43 2°42.968 21.6909 0.262672 1.564658 2.76043
2009-06-18 04:30:53 51°17.439 2°42.948 21.701 0.262672 1.564687 2.76043
2009-06-18 04:30:58 51°17.449 2°42.929 21.6863 0.262672 1.564687 2.76043
2009-06-18 04:31:03 51°17.458 2°42.909 21.6925 0.262672 1.564717 2.76043
2009-06-18 04:31:08 51°17.467 2°42.889 21.6781 0.262672 1.564717 2.76043
2009-06-18 04:31:13 51°17.476 2°42.869 21.6988 0.262672 1.564717 2.76043
2009-06-18 04:31:18 51°17.485 2°42.849 21.6995 0.262672 1.564746 2.725606
2009-06-18 04:31:23 51°17.494 2°42.829 21.6837 0.262672 1.564746 2.76043
2009-06-18 04:31:28 51°17.503 2°42.809 21.6992 0.262672 1.564746 2.76043
2009-06-18 04:31:33 51°17.512 2°42.788 21.6859 0.262569 1.564099 2.76043
2009-06-18 04:31:38 51°17.521 2°42.768 21.7007 0.262569 1.564099 2.76043
2009-06-18 04:31:43 51°17.531 2°42.748 21.7027 0.262672 1.564746 2.725606
2009-06-18 04:31:48 51°17.54 2°42.728 21.6937 0.262569 1.564128 2.76043
2009-06-18 04:31:53 51°17.549 2°42.708 21.6962 0.262672 1.564775 2.725606
2009-06-18 04:31:58 51°17.559 2°42.688 21.702 0.262672 1.564775 2.76043
2009-06-18 04:32:03 51°17.568 2°42.667 21.7069 0.262569 1.564128 2.76043
2009-06-18 04:32:08 51°17.577 2°42.647 21.6882 0.262569 1.564128 2.76043
2009-06-18 04:32:13 51°17.586 2°42.627 21.7064 0.262569 1.564157 2.76043
2009-06-18 04:32:18 51°17.596 2°42.607 21.6796 0.262569 1.564187 2.76043
2009-06-18 04:32:23 51°17.605 2°42.587 21.7055 0.262569 1.564187 2.76043
2009-06-18 04:32:28 51°17.614 2°42.567 21.699 0.262569 1.564187 2.76043
2009-06-18 04:32:33 51°17.623 2°42.546 21.6871 0.262569 1.564187 2.76043
2009-06-18 04:32:38 51°17.633 2°42.526 21.6953 0.262569 1.564187 2.76043
2009-06-18 04:32:44 51°17.644 2°42.502 21.7005 0.262569 1.564187 2.76043
2009-06-18 04:32:48 51°17.651 2°42.485 21.7163 0.262569 1.564216 2.76043
2009-06-18 04:32:53 51°17.66 2°42.465 21.6897 0.262569 1.564216 2.76043
2009-06-18 04:32:58 51°17.669 2°42.444 21.7041 0.262569 1.564245 2.76043
2009-06-18 04:33:03 51°17.678 2°42.424 21.7105 0.262569 1.564245 2.76043
2009-06-18 04:33:08 51°17.687 2°42.403 21.7101 0.262569 1.564245 2.76043
2009-06-18 04:33:13 51°17.696 2°42.383 21.71 0.262569 1.564274 2.725606
2009-06-18 04:33:18 51°17.706 2°42.362 21.6929 0.262466 1.563627 2.76043
2009-06-18 04:33:24 51°17.717 2°42.338 21.7076 0.262569 1.564274 2.76043
2009-06-18 04:33:28 51°17.724 2°42.322 21.7135 0.262466 1.563656 2.76043
2009-06-18 04:33:33 51°17.733 2°42.302 21.7168 0.262466 1.563656 2.76043
2009-06-18 04:33:38 51°17.742 2°42.282 21.7147 0.262466 1.563656 2.76043
2009-06-18 04:33:43 51°17.752 2°42.261 21.714 0.262466 1.563685 2.76043
2009-06-18 04:33:48 51°17.761 2°42.24 21.702 0.262466 1.563685 2.76043
2009-06-18 04:33:53 51°17.77 2°42.22 21.7211 0.262466 1.563685 2.76043
2009-06-18 04:33:58 51°17.779 2°42.199 21.7175 0.262466 1.563715 2.725606
2009-06-18 04:34:03 51°17.789 2°42.179 21.7153 0.262466 1.563744 2.725606
2009-06-18 04:34:08 51°17.797 2°42.159 21.7242 0.262466 1.563744 2.725606
2009-06-18 04:34:13 51°17.807 2°42.138 21.7154 0.262363 1.563096 2.76043
2009-06-18 04:34:18 51°17.816 2°42.118 21.7179 0.262466 1.563773 2.76043
2009-06-18 04:34:23 51°17.825 2°42.097 21.7031 0.262466 1.563773 2.76043
2009-06-18 04:34:28 51°17.834 2°42.076 21.7176 0.262466 1.563773 2.76043
2009-06-18 04:34:33 51°17.843 2°42.056 21.7147 0.262466 1.563773 2.76043
2009-06-18 04:34:38 51°17.852 2°42.035 21.7163 0.262466 1.563773 2.76043
2009-06-18 04:34:43 51°17.861 2°42.015 21.7231 0.262466 1.563773 2.76043
2009-06-18 04:34:48 51°17.87 2°41.994 21.7085 0.262363 1.563126 2.76043
2009-06-18 04:34:53 51°17.878 2°41.973 21.7065 0.262466 1.563773 2.76043
2009-06-18 04:34:58 51°17.887 2°41.953 21.7201 0.262466 1.563803 2.76043
2009-06-18 04:35:03 51°17.896 2°41.932 21.7114 0.262363 1.563126 2.76043
2009-06-18 04:35:08 51°17.906 2°41.912 21.7136 0.262363 1.563126 2.76043
2009-06-18 04:35:13 51°17.915 2°41.891 21.7106 0.262363 1.563126 2.725606
2009-06-18 04:35:18 51°17.924 2°41.871 21.7211 0.262466 1.563773 2.76043
2009-06-18 04:35:23 51°17.933 2°41.85 21.7321 0.262466 1.563803 2.76043
2009-06-18 04:35:28 51°17.942 2°41.83 21.7315 0.262363 1.563155 2.76043
2009-06-18 04:35:33 51°17.952 2°41.809 21.709 0.262363 1.563155 2.76043
2009-06-18 04:35:38 51°17.961 2°41.788 21.7115 0.262363 1.563155 2.76043
2009-06-18 04:35:43 51°17.969 2°41.768 21.7325 0.262363 1.563184 2.76043
2009-06-18 04:35:48 51°17.979 2°41.747 21.727 0.262363 1.563214 2.76043
2009-06-18 04:35:53 51°17.987 2°41.726 21.7289 0.262363 1.563184 2.76043
2009-06-18 04:35:58 51°17.996 2°41.705 21.7188 0.262363 1.563214 2.76043
2009-06-18 04:36:03 51°18.005 2°41.684 21.7207 0.262363 1.563243 2.76043
2009-06-18 04:36:08 51°18.013 2°41.663 21.7306 0.262363 1.563243 2.76043
2009-06-18 04:36:13 51°18.022 2°41.641 21.7337 0.262363 1.563214 2.76043
2009-06-18 04:36:18 51°18.031 2°41.621 21.7186 0.262363 1.563243 2.76043
2009-06-18 04:36:23 51°18.04 2°41.6 21.7288 0.262363 1.563243 2.76043
2009-06-18 04:36:28 51°18.048 2°41.579 21.7346 0.262363 1.563272 2.76043
2009-06-18 04:36:33 51°18.057 2°41.558 21.7312 0.262363 1.563272 2.76043
2009-06-18 04:36:38 51°18.066 2°41.537 21.7328 0.262363 1.563272 2.76043
2009-06-18 04:36:43 51°18.075 2°41.516 21.727 0.262363 1.563272 2.76043
2009-06-18 04:36:48 51°18.084 2°41.496 21.7326 0.262363 1.563272 2.725606
2009-06-18 04:36:53 51°18.093 2°41.475 21.735 0.262363 1.563302 2.76043
2009-06-18 04:36:58 51°18.101 2°41.454 21.7372 0.262363 1.563302 2.76043
2009-06-18 04:37:03 51°18.111 2°41.433 21.7372 0.262363 1.563302 2.76043
2009-06-18 04:37:08 51°18.12 2°41.413 21.7415 0.262363 1.563302 2.76043
2009-06-18 04:37:13 51°18.129 2°41.392 21.7359 0.262363 1.563302 2.725606
2009-06-18 04:37:18 51°18.138 2°41.371 21.7278 0.262363 1.563331 2.76043
2009-06-18 04:37:23 51°18.147 2°41.351 21.7377 0.262363 1.56336 2.76043
2009-06-18 04:37:28 51°18.156 2°41.33 21.7431 0.26226 1.562712 2.76043
2009-06-18 04:37:33 51°18.164 2°41.309 21.7394 0.262363 1.56339 2.76043
2009-06-18 04:37:38 51°18.173 2°41.288 21.7378 0.262363 1.56339 2.76043
2009-06-18 04:37:43 51°18.182 2°41.268 21.7366 0.262363 1.56339 2.725606
2009-06-18 04:37:48 51°18.191 2°41.247 21.7438 0.262363 1.563419 2.76043
2009-06-18 04:37:53 51°18.2 2°41.226 21.7474 0.26226 1.5628 2.76043
2009-06-18 04:37:58 51°18.209 2°41.205 21.7203 0.262363 1.563478 2.76043
2009-06-18 04:38:03 51°18.218 2°41.184 21.7496 0.26226 1.562859 2.76043
2009-06-18 04:38:08 51°18.228 2°41.164 21.7455 0.26226 1.562859 2.76043
2009-06-18 04:38:13 51°18.237 2°41.144 21.7432 0.26226 1.562888 2.76043
2009-06-18 04:38:18 51°18.246 2°41.123 21.7507 0.26226 1.562918 2.76043
2009-06-18 04:38:24 51°18.256 2°41.099 21.7475 0.26226 1.562947 2.76043
2009-06-18 04:38:28 51°18.264 2°41.082 21.7428 0.26226 1.562947 2.76043
2009-06-18 04:38:33 51°18.273 2°41.062 21.7535 0.26226 1.562976 2.76043
2009-06-18 04:38:38 51°18.282 2°41.042 21.7371 0.26226 1.562976 2.76043
2009-06-18 04:38:43 51°18.291 2°41.021 21.7451 0.26226 1.563006 2.76043
2009-06-18 04:38:48 51°18.301 2°41.001 21.7465 0.26226 1.563035 2.76043
2009-06-18 04:38:53 51°18.31 2°40.981 21.7555 0.26226 1.563035 2.76043
2009-06-18 04:38:58 51°18.32 2°40.961 21.7505 0.26226 1.563094 2.76043
2009-06-18 04:39:03 51°18.329 2°40.941 21.7487 0.26226 1.563094 2.76043
2009-06-18 04:39:08 51°18.338 2°40.92 21.7503 0.26226 1.563094 2.76043
2009-06-18 04:39:13 51°18.347 2°40.9 21.7488 0.26226 1.563094 2.76043
2009-06-18 04:39:18 51°18.356 2°40.88 21.7606 0.26226 1.563123 2.76043
2009-06-18 04:39:23 51°18.366 2°40.859 21.7455 0.26226 1.563123 2.76043
2009-06-18 04:39:28 51°18.375 2°40.839 21.7488 0.26226 1.563152 2.76043
2009-06-18 04:39:33 51°18.384 2°40.819 21.7616 0.26226 1.563182 2.76043
2009-06-18 04:39:38 51°18.393 2°40.799 21.7433 0.26226 1.563182 2.76043
2009-06-18 04:39:43 51°18.403 2°40.778 21.7529 0.26226 1.563182 2.76043
2009-06-18 04:39:48 51°18.412 2°40.758 21.7556 0.26226 1.563182 2.76043
2009-06-18 04:39:53 51°18.421 2°40.737 21.7526 0.26226 1.563211 2.76043
2009-06-18 04:39:58 51°18.431 2°40.717 21.7616 0.26226 1.563211 2.76043
2009-06-18 04:40:03 51°18.44 2°40.696 21.7469 0.26226 1.563211 2.76043
2009-06-18 04:40:08 51°18.45 2°40.676 21.766 0.26226 1.563211 2.76043
2009-06-18 04:40:13 51°18.459 2°40.656 21.754 0.26226 1.563211 2.76043
2009-06-18 04:40:18 51°18.468 2°40.636 21.7602 0.26226 1.56324 2.76043
2009-06-18 04:40:24 51°18.48 2°40.612 21.7593 0.26226 1.56324 2.76043
2009-06-18 04:40:28 51°18.487 2°40.596 21.7562 0.26226 1.56324 2.76043
2009-06-18 04:40:33 51°18.496 2°40.575 21.7537 0.26226 1.56327 2.76043
2009-06-18 04:40:38 51°18.506 2°40.555 21.7478 0.26226 1.56327 2.76043
2009-06-18 04:40:43 51°18.515 2°40.535 21.7623 0.26226 1.56327 2.76043
2009-06-18 04:40:48 51°18.525 2°40.514 21.7612 0.26226 1.56327 2.76043
2009-06-18 04:40:53 51°18.534 2°40.494 21.768 0.26226 1.563299 2.76043
2009-06-18 04:40:58 51°18.544 2°40.474 21.7602 0.26226 1.563299 2.76043
2009-06-18 04:41:03 51°18.553 2°40.454 21.769 0.26226 1.563328 2.76043
2009-06-18 04:41:08 51°18.563 2°40.434 21.7693 0.26226 1.563328 2.76043
2009-06-18 04:41:13 51°18.572 2°40.413 21.7644 0.26226 1.563328 2.76043
2009-06-18 04:41:18 51°18.581 2°40.393 21.757 0.26226 1.563328 2.76043
2009-06-18 04:41:23 51°18.59 2°40.372 21.7639 0.26226 1.563328 2.76043
2009-06-18 04:41:28 51°18.6 2°40.352 21.7752 0.26226 1.563358 2.76043
2009-06-18 04:41:33 51°18.609 2°40.332 21.7729 0.26226 1.563358 2.76043
2009-06-18 04:41:38 51°18.619 2°40.311 21.7764 0.26226 1.563358 2.76043
2009-06-18 04:41:43 51°18.628 2°40.291 21.7621 0.26226 1.563358 2.76043
2009-06-18 04:41:48 51°18.638 2°40.271 21.7774 0.26226 1.563387 2.76043
2009-06-18 04:41:53 51°18.647 2°40.251 21.7779 0.26226 1.563387 2.76043
2009-06-18 04:41:57 51°18.655 2°40.234 21.7719 0.26226 1.563387 2.725606
2009-06-18 04:42:03 51°18.666 2°40.21 21.7781 0.26226 1.563416 2.76043
2009-06-18 04:42:08 51°18.676 2°40.19 21.7725 0.26226 1.563416 2.76043
2009-06-18 04:42:13 51°18.685 2°40.169 21.7794 0.26226 1.563416 2.76043
2009-06-18 04:42:18 51°18.694 2°40.148 21.7714 0.26226 1.563416 2.76043
2009-06-18 04:42:23 51°18.703 2°40.127 21.7773 0.26226 1.563416 2.76043
2009-06-18 04:42:28 51°18.713 2°40.107 21.788 0.26226 1.563416 2.76043
2009-06-18 04:42:33 51°18.722 2°40.086 21.7618 0.262157 1.562797 2.76043
2009-06-18 04:42:38 51°18.732 2°40.066 21.7858 0.262157 1.562797 2.76043
2009-06-18 04:42:44 51°18.743 2°40.042 21.7761 0.26226 1.563446 2.76043
2009-06-18 04:42:48 51°18.751 2°40.026 21.7874 0.26226 1.563504 2.76043
2009-06-18 04:42:53 51°18.76 2°40.005 21.7782 0.26226 1.563504 2.76043
2009-06-18 04:42:58 51°18.769 2°39.985 21.7829 0.26226 1.563504 2.76043
2009-06-18 04:43:03 51°18.779 2°39.964 21.7849 0.26226 1.563504 2.76043
2009-06-18 04:43:08 51°18.788 2°39.944 21.7729 0.26226 1.563504 2.76043
2009-06-18 04:43:13 51°18.797 2°39.923 21.7834 0.262157 1.562856 2.76043
2009-06-18 04:43:18 51°18.807 2°39.903 21.7856 0.26226 1.563534 2.76043
2009-06-18 04:43:23 51°18.816 2°39.882 21.7987 0.262157 1.562915 2.76043
2009-06-18 04:43:28 51°18.826 2°39.862 21.7908 0.26226 1.563563 2.76043
2009-06-18 04:43:33 51°18.835 2°39.841 21.7908 0.26226 1.563592 2.76043
2009-06-18 04:43:38 51°18.844 2°39.821 21.7857 0.26226 1.563592 2.76043
2009-06-18 04:43:43 51°18.854 2°39.8 21.7767 0.26226 1.563622 2.76043
2009-06-18 04:43:48 51°18.863 2°39.78 21.7856 0.26226 1.563651 2.76043
2009-06-18 04:43:53 51°18.872 2°39.759 21.7834 0.262157 1.563032 2.725606
2009-06-18 04:43:58 51°18.882 2°39.739 21.7936 0.26226 1.56371 2.76043
2009-06-18 04:44:03 51°18.891 2°39.719 21.7763 0.26226 1.563739 2.76043
2009-06-18 04:44:08 51°18.901 2°39.699 21.781 0.26226 1.563739 2.76043
2009-06-18 04:44:13 51°18.91 2°39.679 21.792 0.26226 1.563768 2.76043
2009-06-18 04:44:18 51°18.92 2°39.659 21.7914 0.26226 1.563827 2.725606
2009-06-18 04:44:24 51°18.931 2°39.634 21.7822 0.26226 1.563827 2.76043
2009-06-18 04:44:28 51°18.938 2°39.618 21.7905 0.262157 1.563208 2.76043
2009-06-18 04:44:33 51°18.947 2°39.597 21.7973 0.26226 1.563886 2.76043
2009-06-18 04:44:38 51°18.957 2°39.576 21.794 0.26226 1.563886 2.76043
2009-06-18 04:44:43 51°18.966 2°39.556 21.7874 0.262157 1.563267 2.725606
2009-06-18 04:44:48 51°18.975 2°39.536 21.7956 0.262157 1.563296 2.76043
2009-06-18 04:44:53 51°18.984 2°39.515 21.7977 0.262157 1.563296 2.76043
2009-06-18 04:44:58 51°18.993 2°39.494 21.7838 0.26226 1.563974 2.76043
2009-06-18 04:45:04 51°19.004 2°39.469 21.7961 0.262157 1.563325 2.76043
2009-06-18 04:45:08 51°19.011 2°39.453 21.7905 0.262157 1.563325 2.76043
2009-06-18 04:45:13 51°19.02 2°39.433 21.8034 0.262157 1.563325 2.76043
2009-06-18 04:45:18 51°19.03 2°39.412 21.7937 0.262157 1.563355 2.76043
2009-06-18 04:45:23 51°19.039 2°39.392 21.7965 0.262157 1.563355 2.76043
2009-06-18 04:45:28 51°19.048 2°39.371 21.7949 0.262157 1.563384 2.76043
2009-06-18 04:45:33 51°19.057 2°39.351 21.8015 0.262157 1.563384 2.76043
2009-06-18 04:45:38 51°19.066 2°39.33 21.807 0.262157 1.563384 2.76043
2009-06-18 04:45:43 51°19.076 2°39.31 21.8084 0.262157 1.563384 2.76043
2009-06-18 04:45:48 51°19.085 2°39.289 21.7959 0.262157 1.563384 2.76043
2009-06-18 04:45:53 51°19.094 2°39.269 21.798 0.262157 1.563384 2.76043
2009-06-18 04:45:58 51°19.104 2°39.248 21.807 0.262157 1.563384 2.76043
2009-06-18 04:46:03 51°19.113 2°39.228 21.7985 0.262157 1.563384 2.725606
2009-06-18 04:46:08 51°19.122 2°39.207 21.8033 0.262157 1.563384 2.725606
2009-06-18 04:46:13 51°19.131 2°39.187 21.8018 0.262157 1.563414 2.76043
2009-06-18 04:46:18 51°19.14 2°39.166 21.8099 0.262157 1.563384 2.76043
2009-06-18 04:46:23 51°19.15 2°39.146 21.8192 0.262157 1.563414 2.76043
2009-06-18 04:46:28 51°19.159 2°39.125 21.7933 0.262157 1.563414 2.76043
2009-06-18 04:46:33 51°19.168 2°39.105 21.8162 0.262157 1.563414 2.76043
2009-06-18 04:46:38 51°19.178 2°39.085 21.8154 0.262157 1.563414 2.76043
2009-06-18 04:46:43 51°19.187 2°39.064 21.8137 0.262157 1.563384 2.76043
2009-06-18 04:46:48 51°19.196 2°39.044 21.8028 0.262157 1.563414 2.76043
2009-06-18 04:46:53 51°19.206 2°39.023 21.815 0.262157 1.563384 2.76043
2009-06-18 04:46:58 51°19.215 2°39.002 21.8094 0.262157 1.563414 2.76043
2009-06-18 04:47:03 51°19.224 2°38.982 21.8165 0.262157 1.563414 2.76043
2009-06-18 04:47:08 51°19.234 2°38.962 21.8153 0.262157 1.563414 2.76043
2009-06-18 04:47:13 51°19.243 2°38.942 21.8319 0.262157 1.563414 2.725606
2009-06-18 04:47:18 51°19.252 2°38.921 21.8008 0.262157 1.563414 2.76043
2009-06-18 04:47:24 51°19.264 2°38.897 21.8221 0.26226 1.564062 2.725606
2009-06-18 04:47:28 51°19.271 2°38.88 21.8249 0.262157 1.563414 2.76043
2009-06-18 04:47:33 51°19.28 2°38.86 21.8225 0.262157 1.563414 2.76043
2009-06-18 04:47:38 51°19.289 2°38.839 21.8237 0.262157 1.563414 2.76043
2009-06-18 04:47:43 51°19.298 2°38.819 21.8164 0.262157 1.563443 2.725606
2009-06-18 04:47:48 51°19.307 2°38.798 21.8171 0.262157 1.563443 2.725606
2009-06-18 04:47:53 51°19.316 2°38.777 21.8236 0.262157 1.563443 2.76043
2009-06-18 04:47:58 51°19.325 2°38.756 21.8205 0.262157 1.563472 2.76043
2009-06-18 04:48:03 51°19.335 2°38.735 21.8112 0.262157 1.563472 2.76043
2009-06-18 04:48:08 51°19.344 2°38.715 21.8013 0.262157 1.563472 2.76043
2009-06-18 04:48:13 51°19.353 2°38.694 21.8186 0.262157 1.563443 2.725606
2009-06-18 04:48:18 51°19.362 2°38.674 21.822 0.262157 1.563472 2.76043
2009-06-18 04:48:23 51°19.371 2°38.653 21.8283 0.262054 1.562824 2.725606
2009-06-18 04:48:28 51°19.38 2°38.632 21.8168 0.262157 1.563443 2.76043
2009-06-18 04:48:33 51°19.389 2°38.612 21.8176 0.262054 1.562824 2.76043
2009-06-18 04:48:38 51°19.398 2°38.591 21.8101 0.262054 1.562824 2.76043
2009-06-18 04:48:43 51°19.407 2°38.571 21.8228 0.262157 1.563472 2.76043
2009-06-18 04:48:48 51°19.416 2°38.55 21.821 0.262157 1.563502 2.76043
2009-06-18 04:48:53 51°19.426 2°38.53 21.8112 0.262157 1.563502 2.76043
2009-06-18 04:48:58 51°19.435 2°38.509 21.8276 0.262157 1.563502 2.76043
2009-06-18 04:49:04 51°19.446 2°38.485 21.8215 0.262157 1.563531 2.725606
2009-06-18 04:49:08 51°19.453 2°38.468 21.8234 0.262157 1.563531 2.725606
2009-06-18 04:49:13 51°19.462 2°38.448 21.8115 0.262157 1.563531 2.76043
2009-06-18 04:49:18 51°19.471 2°38.427 21.8253 0.262157 1.563531 2.76043
2009-06-18 04:49:23 51°19.48 2°38.406 21.8307 0.262157 1.563531 2.76043
2009-06-18 04:49:28 51°19.489 2°38.385 21.8321 0.262157 1.563531 2.725606
2009-06-18 04:49:33 51°19.498 2°38.365 21.8211 0.262157 1.56356 2.76043
2009-06-18 04:49:38 51°19.507 2°38.344 21.8379 0.262157 1.56356 2.76043
2009-06-18 04:49:43 51°19.516 2°38.324 21.8167 0.262157 1.56356 2.76043
2009-06-18 04:49:48 51°19.525 2°38.304 21.83 0.262157 1.56356 2.725606
2009-06-18 04:49:53 51°19.535 2°38.283 21.838 0.262157 1.56356 2.76043
2009-06-18 04:49:57 51°19.542 2°38.267 21.8365 0.262157 1.56359 2.76043
2009-06-18 04:50:03 51°19.553 2°38.242 21.8259 0.262157 1.563619 2.76043
2009-06-18 04:50:08 51°19.562 2°38.222 21.8352 0.262157 1.563619 2.76043
2009-06-18 04:50:13 51°19.57 2°38.201 21.8417 0.262157 1.56359 2.725606
2009-06-18 04:50:18 51°19.579 2°38.18 21.8253 0.262157 1.56359 2.725606
2009-06-18 04:50:23 51°19.589 2°38.16 21.8278 0.262157 1.563619 2.76043
2009-06-18 04:50:29 51°19.6 2°38.136 21.8416 0.262157 1.563619 2.76043
2009-06-18 04:50:33 51°19.607 2°38.12 21.8488 0.262157 1.563648 2.725606
2009-06-18 04:50:37 51°19.614 2°38.103 21.8517 0.262157 1.563648 2.725606
2009-06-18 04:50:43 51°19.625 2°38.079 21.8485 0.262157 1.563648 2.725606
2009-06-18 04:50:48 51°19.634 2°38.058 21.8498 0.262157 1.563648 2.76043
2009-06-18 04:50:53 51°19.644 2°38.038 21.8469 0.262157 1.563678 2.76043
2009-06-18 04:50:58 51°19.653 2°38.018 21.8253 0.262157 1.563678 2.76043
2009-06-18 04:51:03 51°19.662 2°37.998 21.8418 0.262157 1.563707 2.76043
2009-06-18 04:51:08 51°19.671 2°37.977 21.8429 0.262157 1.563707 2.76043
2009-06-18 04:51:13 51°19.68 2°37.957 21.848 0.262157 1.563707 2.725606
2009-06-18 04:51:17 51°19.687 2°37.941 21.8325 0.262157 1.563736 2.76043
2009-06-18 04:51:23 51°19.698 2°37.916 21.8454 0.262157 1.563736 2.76043
2009-06-18 04:51:28 51°19.707 2°37.896 21.8499 0.262157 1.563736 2.725606
2009-06-18 04:51:33 51°19.716 2°37.875 21.8324 0.262157 1.563766 2.76043
2009-06-18 04:51:37 51°19.724 2°37.859 21.845 0.262157 1.563766 2.76043
2009-06-18 04:51:43 51°19.735 2°37.835 21.8362 0.262157 1.563795 2.725606
2009-06-18 04:51:48 51°19.744 2°37.814 21.8539 0.262157 1.563795 2.76043
2009-06-18 04:51:53 51°19.754 2°37.794 21.8437 0.262157 1.563795 2.76043
2009-06-18 04:51:57 51°19.761 2°37.778 21.8478 0.262157 1.563795 2.725606
2009-06-18 04:52:03 51°19.772 2°37.754 21.8499 0.262157 1.563825 2.725606
2009-06-18 04:52:08 51°19.781 2°37.733 21.8552 0.262157 1.563825 2.725606
2009-06-18 04:52:13 51°19.791 2°37.713 21.8361 0.262157 1.563825 2.76043
2009-06-18 04:52:18 51°19.8 2°37.693 21.8594 0.262157 1.563825 2.76043
2009-06-18 04:52:23 51°19.809 2°37.673 21.8634 0.262157 1.563825 2.76043
2009-06-18 04:52:28 51°19.819 2°37.653 21.8473 0.262157 1.563854 2.725606
2009-06-18 04:52:33 51°19.828 2°37.632 21.8489 0.262157 1.563854 2.76043
2009-06-18 04:52:38 51°19.837 2°37.612 21.8371 0.262157 1.563854 2.76043
2009-06-18 04:52:43 51°19.847 2°37.591 21.8605 0.262157 1.563854 2.725606
2009-06-18 04:52:48 51°19.856 2°37.571 21.8505 0.262157 1.563883 2.725606
2009-06-18 04:52:53 51°19.865 2°37.55 21.8626 0.262157 1.563883 2.725606
2009-06-18 04:52:58 51°19.875 2°37.53 21.8553 0.262157 1.563913 2.76043
2009-06-18 04:53:04 51°19.886 2°37.506 21.8439 0.262157 1.563913 2.76043
2009-06-18 04:53:08 51°19.893 2°37.489 21.8502 0.262157 1.563913 2.76043
2009-06-18 04:53:13 51°19.903 2°37.469 21.8561 0.262157 1.563913 2.76043
2009-06-18 04:53:18 51°19.912 2°37.449 21.8629 0.262157 1.563913 2.725606
2009-06-18 04:53:23 51°19.922 2°37.428 21.8505 0.262157 1.563942 2.725606
2009-06-18 04:53:28 51°19.931 2°37.408 21.8563 0.262054 1.563323 2.725606
2009-06-18 04:53:33 51°19.941 2°37.388 21.8586 0.262157 1.563971 2.725606
2009-06-18 04:53:38 51°19.95 2°37.368 21.8558 0.262157 1.563971 2.725606
2009-06-18 04:53:43 51°19.959 2°37.347 21.8621 0.262157 1.563971 2.725606
2009-06-18 04:53:48 51°19.969 2°37.327 21.8549 0.262157 1.564001 2.725606
2009-06-18 04:53:53 51°19.978 2°37.306 21.8552 0.262054 1.563382 2.725606
2009-06-18 04:53:57 51°19.986 2°37.29 21.8587 0.262157 1.56403 2.725606
2009-06-18 04:54:03 51°19.997 2°37.266 21.8515 0.262054 1.563411 2.725606
2009-06-18 04:54:08 51°20.007 2°37.245 21.8642 0.262054 1.563411 2.725606
2009-06-18 04:54:13 51°20.016 2°37.225 21.8725 0.262157 1.564089 2.725606
2009-06-18 04:54:18 51°20.026 2°37.205 21.867 0.262157 1.564118 2.725606
2009-06-18 04:54:23 51°20.035 2°37.184 21.8573 0.262157 1.564148 2.725606
2009-06-18 04:54:28 51°20.044 2°37.164 21.8651 0.262157 1.564177 2.76043
2009-06-18 04:54:33 51°20.053 2°37.143 21.8503 0.262054 1.563558 2.725606
2009-06-18 04:54:37 51°20.061 2°37.127 21.8516 0.262054 1.563558 2.725606
2009-06-18 04:54:43 51°20.072 2°37.103 21.872 0.262054 1.563587 2.76043
2009-06-18 04:54:48 51°20.081 2°37.082 21.8662 0.262054 1.563617 2.725606
2009-06-18 04:54:53 51°20.091 2°37.062 21.8781 0.262157 1.564265 2.725606
2009-06-18 04:54:58 51°20.1 2°37.042 21.8673 0.262157 1.564324 2.76043
2009-06-18 04:55:03 51°20.109 2°37.021 21.8534 0.262054 1.563705 2.725606
2009-06-18 04:55:08 51°20.118 2°37.001 21.8626 0.262054 1.563705 2.725606
2009-06-18 04:55:13 51°20.128 2°36.981 21.8668 0.262054 1.563705 2.725606
2009-06-18 04:55:17 51°20.135 2°36.964 21.8753 0.262054 1.563705 2.725606
2009-06-18 04:55:23 51°20.146 2°36.941 21.8773 0.262054 1.563763 2.725606
2009-06-18 04:55:28 51°20.155 2°36.921 21.876 0.262054 1.563793 2.76043
2009-06-18 04:55:33 51°20.165 2°36.901 21.8952 0.262054 1.563822 2.725606
2009-06-18 04:55:37 51°20.172 2°36.885 21.8833 0.262054 1.563822 2.725606
2009-06-18 04:55:43 51°20.183 2°36.86 21.858 0.262054 1.563852 2.76043
2009-06-18 04:55:48 51°20.192 2°36.84 21.8748 0.262054 1.563822 2.725606
2009-06-18 04:55:53 51°20.201 2°36.819 21.8597 0.262054 1.563852 2.725606
2009-06-18 04:55:58 51°20.21 2°36.799 21.877 0.262054 1.563852 2.725606
2009-06-18 04:56:03 51°20.219 2°36.779 21.8839 0.262054 1.563852 2.76043
2009-06-18 04:56:08 51°20.228 2°36.758 21.8854 0.262054 1.563852 2.76043
2009-06-18 04:56:13 51°20.237 2°36.738 21.8735 0.262054 1.56391 2.725606
2009-06-18 04:56:18 51°20.246 2°36.717 21.8835 0.262054 1.56391 2.76043
2009-06-18 04:56:23 51°20.255 2°36.697 21.8871 0.262054 1.56391 2.725606
2009-06-18 04:56:28 51°20.264 2°36.677 21.8867 0.262054 1.56391 2.76043
2009-06-18 04:56:33 51°20.273 2°36.656 21.8923 0.262054 1.56391 2.76043
2009-06-18 04:56:38 51°20.283 2°36.636 21.8848 0.262054 1.56391 2.76043
2009-06-18 04:56:43 51°20.291 2°36.616 21.8895 0.262054 1.56394 2.725606
2009-06-18 04:56:48 51°20.3 2°36.595 21.8895 0.261951 1.563262 2.725606
2009-06-18 04:56:53 51°20.31 2°36.575 21.8815 0.262054 1.56391 2.725606
2009-06-18 04:56:58 51°20.319 2°36.555 21.8889 0.261951 1.563262 2.725606
2009-06-18 04:57:03 51°20.328 2°36.535 21.8844 0.261951 1.563262 2.725606
2009-06-18 04:57:08 51°20.337 2°36.515 21.8704 0.261951 1.563262 2.725606
2009-06-18 04:57:13 51°20.347 2°36.495 21.8846 0.261951 1.563262 2.76043
2009-06-18 04:57:18 51°20.356 2°36.474 21.8878 0.261951 1.563262 2.725606
2009-06-18 04:57:23 51°20.365 2°36.454 21.8691 0.261951 1.563291 2.725606
2009-06-18 04:57:28 51°20.374 2°36.434 21.895 0.261951 1.563262 2.725606
2009-06-18 04:57:33 51°20.384 2°36.413 21.8887 0.261951 1.56332 2.725606
2009-06-18 04:57:38 51°20.393 2°36.393 21.8978 0.261951 1.56332 2.725606
2009-06-18 04:57:43 51°20.403 2°36.373 21.8823 0.261951 1.563291 2.725606
2009-06-18 04:57:48 51°20.412 2°36.353 21.8801 0.261951 1.563291 2.725606
2009-06-18 04:57:53 51°20.421 2°36.332 21.8824 0.261951 1.56332 2.725606
2009-06-18 04:57:58 51°20.43 2°36.311 21.8828 0.261951 1.56332 2.725606
2009-06-18 04:58:03 51°20.44 2°36.29 21.8975 0.261951 1.56332 2.725606
2009-06-18 04:58:08 51°20.449 2°36.27 21.8882 0.261951 1.56332 2.725606
2009-06-18 04:58:13 51°20.458 2°36.249 21.8824 0.261951 1.56335 2.725606
2009-06-18 04:58:18 51°20.467 2°36.228 21.8867 0.261951 1.56332 2.725606
2009-06-18 04:58:23 51°20.476 2°36.208 21.8919 0.261951 1.56335 2.725606
2009-06-18 04:58:28 51°20.485 2°36.188 21.9023 0.261951 1.56335 2.725606
2009-06-18 04:58:33 51°20.495 2°36.167 21.8951 0.261951 1.563379 2.725606
2009-06-18 04:58:38 51°20.504 2°36.147 21.8982 0.261951 1.563379 2.725606